<?xml version="1.0" encoding="UTF-8" standalone="no" ?>
<gpx xmlns="http://www.topografix.com/GPX/1/1" xmlns:xsi="http://www.w3.org/2001/XMLSchema-instance" xsi:schemaLocation="http://www.topografix.com/GPX/1/1 http://www.topografix.com/GPX/1/1/gpx.xsd" version="1.1" creator="VisuGPX - https://www.visugpx.com">
  <metadata>
    <name>Dondas - Sabré - 24 août 2017</name>
    <desc><![CDATA[Dondas - Sabré - 24 août 2017 ------------]]></desc>
  </metadata>
  <trk>
    <name><![CDATA[2017-08-24T08:39:50Z]]></name>
    <trkseg>
      <trkpt lat="44.21981" lon="0.84498">
        <ele>86.721</ele>
        <time>2017-08-24T08:39:51Z</time>
      </trkpt>
      <trkpt lat="44.2198" lon="0.84504">
        <ele>89.511</ele>
        <time>2017-08-24T08:39:54Z</time>
      </trkpt>
      <trkpt lat="44.21979" lon="0.84509">
        <ele>94.741</ele>
        <time>2017-08-24T08:39:59Z</time>
      </trkpt>
      <trkpt lat="44.21984" lon="0.84517">
        <ele>101.211</ele>
        <time>2017-08-24T08:40:03Z</time>
      </trkpt>
      <trkpt lat="44.21982" lon="0.8452">
        <ele>105.752</ele>
        <time>2017-08-24T08:40:06Z</time>
      </trkpt>
      <trkpt lat="44.21976" lon="0.84522">
        <ele>114.131</ele>
        <time>2017-08-24T08:40:13Z</time>
      </trkpt>
      <trkpt lat="44.21973" lon="0.8452">
        <ele>119.7</ele>
        <time>2017-08-24T08:40:17Z</time>
      </trkpt>
      <trkpt lat="44.21976" lon="0.84511">
        <ele>131.77</ele>
        <time>2017-08-24T08:40:25Z</time>
      </trkpt>
      <trkpt lat="44.21979" lon="0.84491">
        <ele>141.58</ele>
        <time>2017-08-24T08:40:34Z</time>
      </trkpt>
      <trkpt lat="44.21987" lon="0.84463">
        <ele>146.67</ele>
        <time>2017-08-24T08:40:44Z</time>
      </trkpt>
      <trkpt lat="44.21994" lon="0.84441">
        <ele>149.11</ele>
        <time>2017-08-24T08:40:51Z</time>
      </trkpt>
      <trkpt lat="44.22003" lon="0.84405">
        <ele>150.369</ele>
        <time>2017-08-24T08:41:01Z</time>
      </trkpt>
      <trkpt lat="44.22013" lon="0.84376">
        <ele>151.308</ele>
        <time>2017-08-24T08:41:08Z</time>
      </trkpt>
      <trkpt lat="44.22032" lon="0.84349">
        <ele>148.955</ele>
        <time>2017-08-24T08:41:13Z</time>
      </trkpt>
      <trkpt lat="44.22035" lon="0.84342">
        <ele>148.295</ele>
        <time>2017-08-24T08:41:14Z</time>
      </trkpt>
      <trkpt lat="44.22049" lon="0.84299">
        <ele>144.303</ele>
        <time>2017-08-24T08:41:19Z</time>
      </trkpt>
      <trkpt lat="44.22072" lon="0.84253">
        <ele>141.405</ele>
        <time>2017-08-24T08:41:24Z</time>
      </trkpt>
      <trkpt lat="44.22093" lon="0.84212">
        <ele>139.816</ele>
        <time>2017-08-24T08:41:29Z</time>
      </trkpt>
      <trkpt lat="44.22113" lon="0.84167">
        <ele>136.855</ele>
        <time>2017-08-24T08:41:34Z</time>
      </trkpt>
      <trkpt lat="44.22124" lon="0.84143">
        <ele>133.854</ele>
        <time>2017-08-24T08:41:37Z</time>
      </trkpt>
      <trkpt lat="44.22153" lon="0.84114">
        <ele>129.313</ele>
        <time>2017-08-24T08:41:42Z</time>
      </trkpt>
      <trkpt lat="44.22203" lon="0.84093">
        <ele>120.622</ele>
        <time>2017-08-24T08:41:48Z</time>
      </trkpt>
      <trkpt lat="44.22247" lon="0.84081">
        <ele>114.904</ele>
        <time>2017-08-24T08:41:53Z</time>
      </trkpt>
      <trkpt lat="44.22282" lon="0.84075">
        <ele>112.027</ele>
        <time>2017-08-24T08:41:58Z</time>
      </trkpt>
      <trkpt lat="44.22289" lon="0.84073">
        <ele>111.527</ele>
        <time>2017-08-24T08:41:59Z</time>
      </trkpt>
      <trkpt lat="44.22323" lon="0.84058">
        <ele>108.647</ele>
        <time>2017-08-24T08:42:05Z</time>
      </trkpt>
      <trkpt lat="44.22348" lon="0.84044">
        <ele>106.107</ele>
        <time>2017-08-24T08:42:10Z</time>
      </trkpt>
      <trkpt lat="44.22367" lon="0.84033">
        <ele>104.697</ele>
        <time>2017-08-24T08:42:14Z</time>
      </trkpt>
      <trkpt lat="44.22397" lon="0.84015">
        <ele>102.877</ele>
        <time>2017-08-24T08:42:19Z</time>
      </trkpt>
      <trkpt lat="44.22435" lon="0.83994">
        <ele>100.557</ele>
        <time>2017-08-24T08:42:24Z</time>
      </trkpt>
      <trkpt lat="44.22478" lon="0.83969">
        <ele>96.605</ele>
        <time>2017-08-24T08:42:29Z</time>
      </trkpt>
      <trkpt lat="44.225" lon="0.83954">
        <ele>94.275</ele>
        <time>2017-08-24T08:42:32Z</time>
      </trkpt>
      <trkpt lat="44.22511" lon="0.83945">
        <ele>93.167</ele>
        <time>2017-08-24T08:42:35Z</time>
      </trkpt>
      <trkpt lat="44.22515" lon="0.83936">
        <ele>92.679</ele>
        <time>2017-08-24T08:42:38Z</time>
      </trkpt>
      <trkpt lat="44.22507" lon="0.83918">
        <ele>93.02</ele>
        <time>2017-08-24T08:42:43Z</time>
      </trkpt>
      <trkpt lat="44.22481" lon="0.83876">
        <ele>93.591</ele>
        <time>2017-08-24T08:42:54Z</time>
      </trkpt>
      <trkpt lat="44.22454" lon="0.83837">
        <ele>93.671</ele>
        <time>2017-08-24T08:43:04Z</time>
      </trkpt>
      <trkpt lat="44.22429" lon="0.83801">
        <ele>92.58</ele>
        <time>2017-08-24T08:43:12Z</time>
      </trkpt>
      <trkpt lat="44.22401" lon="0.83767">
        <ele>91.68</ele>
        <time>2017-08-24T08:43:19Z</time>
      </trkpt>
      <trkpt lat="44.22364" lon="0.83737">
        <ele>90.44</ele>
        <time>2017-08-24T08:43:26Z</time>
      </trkpt>
      <trkpt lat="44.22312" lon="0.83703">
        <ele>89.841</ele>
        <time>2017-08-24T08:43:36Z</time>
      </trkpt>
      <trkpt lat="44.22277" lon="0.8368">
        <ele>89.69</ele>
        <time>2017-08-24T08:43:44Z</time>
      </trkpt>
      <trkpt lat="44.22255" lon="0.83666">
        <ele>89.499</ele>
        <time>2017-08-24T08:43:49Z</time>
      </trkpt>
      <trkpt lat="44.22229" lon="0.83631">
        <ele>89.009</ele>
        <time>2017-08-24T08:43:57Z</time>
      </trkpt>
      <trkpt lat="44.22201" lon="0.8359">
        <ele>88.509</ele>
        <time>2017-08-24T08:44:05Z</time>
      </trkpt>
      <trkpt lat="44.22174" lon="0.83545">
        <ele>88.229</ele>
        <time>2017-08-24T08:44:13Z</time>
      </trkpt>
      <trkpt lat="44.22144" lon="0.83515">
        <ele>87.93</ele>
        <time>2017-08-24T08:44:20Z</time>
      </trkpt>
      <trkpt lat="44.22104" lon="0.83477">
        <ele>87.67</ele>
        <time>2017-08-24T08:44:29Z</time>
      </trkpt>
      <trkpt lat="44.22065" lon="0.83426">
        <ele>86.929</ele>
        <time>2017-08-24T08:44:39Z</time>
      </trkpt>
      <trkpt lat="44.22055" lon="0.83387">
        <ele>86.888</ele>
        <time>2017-08-24T08:44:45Z</time>
      </trkpt>
      <trkpt lat="44.22055" lon="0.83381">
        <ele>86.928</ele>
        <time>2017-08-24T08:44:46Z</time>
      </trkpt>
      <trkpt lat="44.22057" lon="0.83309">
        <ele>86.878</ele>
        <time>2017-08-24T08:44:57Z</time>
      </trkpt>
      <trkpt lat="44.22049" lon="0.8325">
        <ele>85.527</ele>
        <time>2017-08-24T08:45:06Z</time>
      </trkpt>
      <trkpt lat="44.22041" lon="0.83224">
        <ele>85.808</ele>
        <time>2017-08-24T08:45:10Z</time>
      </trkpt>
      <trkpt lat="44.22019" lon="0.83193">
        <ele>85.908</ele>
        <time>2017-08-24T08:45:16Z</time>
      </trkpt>
      <trkpt lat="44.22015" lon="0.8319">
        <ele>85.818</ele>
        <time>2017-08-24T08:45:17Z</time>
      </trkpt>
      <trkpt lat="44.22006" lon="0.83184">
        <ele>85.647</ele>
        <time>2017-08-24T08:45:19Z</time>
      </trkpt>
      <trkpt lat="44.21989" lon="0.83161">
        <ele>85.969</ele>
        <time>2017-08-24T08:45:24Z</time>
      </trkpt>
      <trkpt lat="44.21986" lon="0.83149">
        <ele>86.109</ele>
        <time>2017-08-24T08:45:26Z</time>
      </trkpt>
      <trkpt lat="44.21973" lon="0.83102">
        <ele>87.699</ele>
        <time>2017-08-24T08:45:35Z</time>
      </trkpt>
      <trkpt lat="44.21953" lon="0.83069">
        <ele>88.869</ele>
        <time>2017-08-24T08:45:43Z</time>
      </trkpt>
      <trkpt lat="44.21927" lon="0.83028">
        <ele>88.466</ele>
        <time>2017-08-24T08:45:53Z</time>
      </trkpt>
      <trkpt lat="44.21905" lon="0.82994">
        <ele>88.116</ele>
        <time>2017-08-24T08:45:59Z</time>
      </trkpt>
      <trkpt lat="44.21889" lon="0.82954">
        <ele>86.495</ele>
        <time>2017-08-24T08:46:04Z</time>
      </trkpt>
      <trkpt lat="44.21869" lon="0.82908">
        <ele>84.585</ele>
        <time>2017-08-24T08:46:10Z</time>
      </trkpt>
      <trkpt lat="44.21846" lon="0.82863">
        <ele>84.637</ele>
        <time>2017-08-24T08:46:17Z</time>
      </trkpt>
      <trkpt lat="44.21816" lon="0.82817">
        <ele>84.657</ele>
        <time>2017-08-24T08:46:26Z</time>
      </trkpt>
      <trkpt lat="44.21778" lon="0.82765">
        <ele>85.438</ele>
        <time>2017-08-24T08:46:38Z</time>
      </trkpt>
      <trkpt lat="44.21741" lon="0.82719">
        <ele>84.765</ele>
        <time>2017-08-24T08:46:49Z</time>
      </trkpt>
      <trkpt lat="44.21707" lon="0.82669">
        <ele>83.454</ele>
        <time>2017-08-24T08:46:59Z</time>
      </trkpt>
      <trkpt lat="44.21674" lon="0.82612">
        <ele>82.594</ele>
        <time>2017-08-24T08:47:10Z</time>
      </trkpt>
      <trkpt lat="44.21646" lon="0.82557">
        <ele>80.944</ele>
        <time>2017-08-24T08:47:19Z</time>
      </trkpt>
      <trkpt lat="44.21629" lon="0.82512">
        <ele>80.135</ele>
        <time>2017-08-24T08:47:26Z</time>
      </trkpt>
      <trkpt lat="44.21606" lon="0.82448">
        <ele>80.215</ele>
        <time>2017-08-24T08:47:36Z</time>
      </trkpt>
      <trkpt lat="44.2158" lon="0.82368">
        <ele>80.394</ele>
        <time>2017-08-24T08:47:49Z</time>
      </trkpt>
      <trkpt lat="44.2156" lon="0.82306">
        <ele>80.934</ele>
        <time>2017-08-24T08:48:00Z</time>
      </trkpt>
      <trkpt lat="44.21548" lon="0.82266">
        <ele>80.553</ele>
        <time>2017-08-24T08:48:07Z</time>
      </trkpt>
      <trkpt lat="44.21527" lon="0.82196">
        <ele>79.673</ele>
        <time>2017-08-24T08:48:18Z</time>
      </trkpt>
      <trkpt lat="44.21515" lon="0.82164">
        <ele>79.644</ele>
        <time>2017-08-24T08:48:23Z</time>
      </trkpt>
      <trkpt lat="44.21491" lon="0.82133">
        <ele>79.914</ele>
        <time>2017-08-24T08:48:30Z</time>
      </trkpt>
      <trkpt lat="44.21462" lon="0.82106">
        <ele>80.084</ele>
        <time>2017-08-24T08:48:38Z</time>
      </trkpt>
      <trkpt lat="44.21442" lon="0.8207">
        <ele>79.623</ele>
        <time>2017-08-24T08:48:45Z</time>
      </trkpt>
      <trkpt lat="44.21422" lon="0.82018">
        <ele>78.742</ele>
        <time>2017-08-24T08:48:53Z</time>
      </trkpt>
      <trkpt lat="44.21398" lon="0.81961">
        <ele>78.702</ele>
        <time>2017-08-24T08:49:02Z</time>
      </trkpt>
      <trkpt lat="44.21362" lon="0.81906">
        <ele>78.142</ele>
        <time>2017-08-24T08:49:12Z</time>
      </trkpt>
      <trkpt lat="44.21328" lon="0.8186">
        <ele>78.133</ele>
        <time>2017-08-24T08:49:22Z</time>
      </trkpt>
      <trkpt lat="44.21285" lon="0.81807">
        <ele>78.653</ele>
        <time>2017-08-24T08:49:34Z</time>
      </trkpt>
      <trkpt lat="44.21241" lon="0.81748">
        <ele>78.873</ele>
        <time>2017-08-24T08:49:47Z</time>
      </trkpt>
      <trkpt lat="44.212" lon="0.81691">
        <ele>78.471</ele>
        <time>2017-08-24T08:49:59Z</time>
      </trkpt>
      <trkpt lat="44.21154" lon="0.81624">
        <ele>77.87</ele>
        <time>2017-08-24T08:50:12Z</time>
      </trkpt>
      <trkpt lat="44.21132" lon="0.81576">
        <ele>77.541</ele>
        <time>2017-08-24T08:50:20Z</time>
      </trkpt>
      <trkpt lat="44.21117" lon="0.81526">
        <ele>77.831</ele>
        <time>2017-08-24T08:50:28Z</time>
      </trkpt>
      <trkpt lat="44.21109" lon="0.81472">
        <ele>77.861</ele>
        <time>2017-08-24T08:50:36Z</time>
      </trkpt>
      <trkpt lat="44.21098" lon="0.81402">
        <ele>77.781</ele>
        <time>2017-08-24T08:50:46Z</time>
      </trkpt>
      <trkpt lat="44.21084" lon="0.8133">
        <ele>77.39</ele>
        <time>2017-08-24T08:50:56Z</time>
      </trkpt>
      <trkpt lat="44.21083" lon="0.81308">
        <ele>77.099</ele>
        <time>2017-08-24T08:50:59Z</time>
      </trkpt>
      <trkpt lat="44.21072" lon="0.81243">
        <ele>76.97</ele>
        <time>2017-08-24T08:51:08Z</time>
      </trkpt>
      <trkpt lat="44.21055" lon="0.81199">
        <ele>76.66</ele>
        <time>2017-08-24T08:51:15Z</time>
      </trkpt>
      <trkpt lat="44.21026" lon="0.81145">
        <ele>76.28</ele>
        <time>2017-08-24T08:51:24Z</time>
      </trkpt>
      <trkpt lat="44.21006" lon="0.81097">
        <ele>75.869</ele>
        <time>2017-08-24T08:51:32Z</time>
      </trkpt>
      <trkpt lat="44.20991" lon="0.81057">
        <ele>74.969</ele>
        <time>2017-08-24T08:51:39Z</time>
      </trkpt>
      <trkpt lat="44.2097" lon="0.81002">
        <ele>74.49</ele>
        <time>2017-08-24T08:51:48Z</time>
      </trkpt>
      <trkpt lat="44.20948" lon="0.80963">
        <ele>74.818</ele>
        <time>2017-08-24T08:51:55Z</time>
      </trkpt>
      <trkpt lat="44.20912" lon="0.80922">
        <ele>74.728</ele>
        <time>2017-08-24T08:52:04Z</time>
      </trkpt>
      <trkpt lat="44.20869" lon="0.8087">
        <ele>74.498</ele>
        <time>2017-08-24T08:52:15Z</time>
      </trkpt>
      <trkpt lat="44.20827" lon="0.80825">
        <ele>74.068</ele>
        <time>2017-08-24T08:52:25Z</time>
      </trkpt>
      <trkpt lat="44.20779" lon="0.80787">
        <ele>72.998</ele>
        <time>2017-08-24T08:52:35Z</time>
      </trkpt>
      <trkpt lat="44.20726" lon="0.80734">
        <ele>72.708</ele>
        <time>2017-08-24T08:52:47Z</time>
      </trkpt>
      <trkpt lat="44.20687" lon="0.80686">
        <ele>72.837</ele>
        <time>2017-08-24T08:52:57Z</time>
      </trkpt>
      <trkpt lat="44.20655" lon="0.80627">
        <ele>73.257</ele>
        <time>2017-08-24T08:53:08Z</time>
      </trkpt>
      <trkpt lat="44.20637" lon="0.80582">
        <ele>72.586</ele>
        <time>2017-08-24T08:53:15Z</time>
      </trkpt>
      <trkpt lat="44.20628" lon="0.80564">
        <ele>72.366</ele>
        <time>2017-08-24T08:53:18Z</time>
      </trkpt>
      <trkpt lat="44.20601" lon="0.80541">
        <ele>72.537</ele>
        <time>2017-08-24T08:53:24Z</time>
      </trkpt>
      <trkpt lat="44.2055" lon="0.80516">
        <ele>73.187</ele>
        <time>2017-08-24T08:53:35Z</time>
      </trkpt>
      <trkpt lat="44.20503" lon="0.80492">
        <ele>73.627</ele>
        <time>2017-08-24T08:53:46Z</time>
      </trkpt>
      <trkpt lat="44.20462" lon="0.80472">
        <ele>73.335</ele>
        <time>2017-08-24T08:53:55Z</time>
      </trkpt>
      <trkpt lat="44.20419" lon="0.80451">
        <ele>73.986</ele>
        <time>2017-08-24T08:54:05Z</time>
      </trkpt>
      <trkpt lat="44.20377" lon="0.80428">
        <ele>73.865</ele>
        <time>2017-08-24T08:54:16Z</time>
      </trkpt>
      <trkpt lat="44.20353" lon="0.80406">
        <ele>72.274</ele>
        <time>2017-08-24T08:54:23Z</time>
      </trkpt>
      <trkpt lat="44.20325" lon="0.80374">
        <ele>71.264</ele>
        <time>2017-08-24T08:54:32Z</time>
      </trkpt>
      <trkpt lat="44.20297" lon="0.80347">
        <ele>73.435</ele>
        <time>2017-08-24T08:54:42Z</time>
      </trkpt>
      <trkpt lat="44.20283" lon="0.80339">
        <ele>73.725</ele>
        <time>2017-08-24T08:54:48Z</time>
      </trkpt>
      <trkpt lat="44.20269" lon="0.80333">
        <ele>73.564</ele>
        <time>2017-08-24T08:54:55Z</time>
      </trkpt>
      <trkpt lat="44.20244" lon="0.80325">
        <ele>73.234</ele>
        <time>2017-08-24T08:55:01Z</time>
      </trkpt>
      <trkpt lat="44.20208" lon="0.80313">
        <ele>72.183</ele>
        <time>2017-08-24T08:55:08Z</time>
      </trkpt>
      <trkpt lat="44.20149" lon="0.80296">
        <ele>70.273</ele>
        <time>2017-08-24T08:55:18Z</time>
      </trkpt>
      <trkpt lat="44.20103" lon="0.80283">
        <ele>69.674</ele>
        <time>2017-08-24T08:55:26Z</time>
      </trkpt>
      <trkpt lat="44.20065" lon="0.80268">
        <ele>69.704</ele>
        <time>2017-08-24T08:55:34Z</time>
      </trkpt>
      <trkpt lat="44.20027" lon="0.80249">
        <ele>70.225</ele>
        <time>2017-08-24T08:55:43Z</time>
      </trkpt>
      <trkpt lat="44.20004" lon="0.80236">
        <ele>71.184</ele>
        <time>2017-08-24T08:55:50Z</time>
      </trkpt>
      <trkpt lat="44.19977" lon="0.80218">
        <ele>70.812</ele>
        <time>2017-08-24T08:55:58Z</time>
      </trkpt>
      <trkpt lat="44.1994" lon="0.80197">
        <ele>69.01</ele>
        <time>2017-08-24T08:56:06Z</time>
      </trkpt>
      <trkpt lat="44.19897" lon="0.80183">
        <ele>67.981</ele>
        <time>2017-08-24T08:56:13Z</time>
      </trkpt>
      <trkpt lat="44.19842" lon="0.8017">
        <ele>68.132</ele>
        <time>2017-08-24T08:56:22Z</time>
      </trkpt>
      <trkpt lat="44.19803" lon="0.80163">
        <ele>67.892</ele>
        <time>2017-08-24T08:56:29Z</time>
      </trkpt>
      <trkpt lat="44.19758" lon="0.80158">
        <ele>68.692</ele>
        <time>2017-08-24T08:56:38Z</time>
      </trkpt>
      <trkpt lat="44.1971" lon="0.80159">
        <ele>69.242</ele>
        <time>2017-08-24T08:56:48Z</time>
      </trkpt>
      <trkpt lat="44.19664" lon="0.80167">
        <ele>68.351</ele>
        <time>2017-08-24T08:56:58Z</time>
      </trkpt>
      <trkpt lat="44.19647" lon="0.80182">
        <ele>68.411</ele>
        <time>2017-08-24T08:57:03Z</time>
      </trkpt>
      <trkpt lat="44.19645" lon="0.80187">
        <ele>68.361</ele>
        <time>2017-08-24T08:57:04Z</time>
      </trkpt>
      <trkpt lat="44.1964" lon="0.80201">
        <ele>68.221</ele>
        <time>2017-08-24T08:57:07Z</time>
      </trkpt>
      <trkpt lat="44.19631" lon="0.80204">
        <ele>67.821</ele>
        <time>2017-08-24T08:57:11Z</time>
      </trkpt>
      <trkpt lat="44.19626" lon="0.80201">
        <ele>67.671</ele>
        <time>2017-08-24T08:57:13Z</time>
      </trkpt>
      <trkpt lat="44.19596" lon="0.80192">
        <ele>67.331</ele>
        <time>2017-08-24T08:57:21Z</time>
      </trkpt>
      <trkpt lat="44.19555" lon="0.80193">
        <ele>66.411</ele>
        <time>2017-08-24T08:57:30Z</time>
      </trkpt>
      <trkpt lat="44.19507" lon="0.80193">
        <ele>65.531</ele>
        <time>2017-08-24T08:57:40Z</time>
      </trkpt>
      <trkpt lat="44.19465" lon="0.80195">
        <ele>65.331</ele>
        <time>2017-08-24T08:57:49Z</time>
      </trkpt>
      <trkpt lat="44.19413" lon="0.80197">
        <ele>64.61</ele>
        <time>2017-08-24T08:58:00Z</time>
      </trkpt>
      <trkpt lat="44.19362" lon="0.80199">
        <ele>64.24</ele>
        <time>2017-08-24T08:58:11Z</time>
      </trkpt>
      <trkpt lat="44.19303" lon="0.80201">
        <ele>64.06</ele>
        <time>2017-08-24T08:58:24Z</time>
      </trkpt>
      <trkpt lat="44.19254" lon="0.80202">
        <ele>64.8</ele>
        <time>2017-08-24T08:58:36Z</time>
      </trkpt>
      <trkpt lat="44.19216" lon="0.80204">
        <ele>65.4</ele>
        <time>2017-08-24T08:58:46Z</time>
      </trkpt>
      <trkpt lat="44.19174" lon="0.80206">
        <ele>64.159</ele>
        <time>2017-08-24T08:58:55Z</time>
      </trkpt>
      <trkpt lat="44.19133" lon="0.80208">
        <ele>64.349</ele>
        <time>2017-08-24T08:59:04Z</time>
      </trkpt>
      <trkpt lat="44.19099" lon="0.80206">
        <ele>65.009</ele>
        <time>2017-08-24T08:59:13Z</time>
      </trkpt>
      <trkpt lat="44.19074" lon="0.80194">
        <ele>65.849</ele>
        <time>2017-08-24T08:59:21Z</time>
      </trkpt>
      <trkpt lat="44.19052" lon="0.80171">
        <ele>66.99</ele>
        <time>2017-08-24T08:59:32Z</time>
      </trkpt>
      <trkpt lat="44.19041" lon="0.80151">
        <ele>67.339</ele>
        <time>2017-08-24T08:59:40Z</time>
      </trkpt>
      <trkpt lat="44.19031" lon="0.80122">
        <ele>69.08</ele>
        <time>2017-08-24T08:59:50Z</time>
      </trkpt>
      <trkpt lat="44.19023" lon="0.80085">
        <ele>71.18</ele>
        <time>2017-08-24T09:00:02Z</time>
      </trkpt>
      <trkpt lat="44.19015" lon="0.80053">
        <ele>73.408</ele>
        <time>2017-08-24T09:00:13Z</time>
      </trkpt>
      <trkpt lat="44.19008" lon="0.80021">
        <ele>75.279</ele>
        <time>2017-08-24T09:00:24Z</time>
      </trkpt>
      <trkpt lat="44.19" lon="0.79988">
        <ele>76.599</ele>
        <time>2017-08-24T09:00:35Z</time>
      </trkpt>
      <trkpt lat="44.18994" lon="0.79959">
        <ele>77.909</ele>
        <time>2017-08-24T09:00:45Z</time>
      </trkpt>
      <trkpt lat="44.18988" lon="0.79931">
        <ele>79.599</ele>
        <time>2017-08-24T09:00:55Z</time>
      </trkpt>
      <trkpt lat="44.18984" lon="0.79905">
        <ele>80.607</ele>
        <time>2017-08-24T09:01:04Z</time>
      </trkpt>
      <trkpt lat="44.18982" lon="0.79882">
        <ele>80.718</ele>
        <time>2017-08-24T09:01:12Z</time>
      </trkpt>
      <trkpt lat="44.1898" lon="0.79862">
        <ele>81.668</ele>
        <time>2017-08-24T09:01:19Z</time>
      </trkpt>
      <trkpt lat="44.1898" lon="0.79843">
        <ele>82.578</ele>
        <time>2017-08-24T09:01:26Z</time>
      </trkpt>
      <trkpt lat="44.18979" lon="0.79817">
        <ele>83.728</ele>
        <time>2017-08-24T09:01:36Z</time>
      </trkpt>
      <trkpt lat="44.18976" lon="0.79788">
        <ele>84.547</ele>
        <time>2017-08-24T09:01:47Z</time>
      </trkpt>
      <trkpt lat="44.18972" lon="0.79762">
        <ele>85.127</ele>
        <time>2017-08-24T09:01:57Z</time>
      </trkpt>
      <trkpt lat="44.18966" lon="0.79735">
        <ele>86.176</ele>
        <time>2017-08-24T09:02:07Z</time>
      </trkpt>
      <trkpt lat="44.18959" lon="0.79711">
        <ele>86.497</ele>
        <time>2017-08-24T09:02:16Z</time>
      </trkpt>
      <trkpt lat="44.1895" lon="0.79686">
        <ele>87.707</ele>
        <time>2017-08-24T09:02:26Z</time>
      </trkpt>
      <trkpt lat="44.18939" lon="0.79657">
        <ele>87.475</ele>
        <time>2017-08-24T09:02:38Z</time>
      </trkpt>
      <trkpt lat="44.18933" lon="0.79632">
        <ele>87.523</ele>
        <time>2017-08-24T09:02:47Z</time>
      </trkpt>
      <trkpt lat="44.18931" lon="0.79612">
        <ele>89.557</ele>
        <time>2017-08-24T09:02:54Z</time>
      </trkpt>
      <trkpt lat="44.18929" lon="0.79589">
        <ele>91.117</ele>
        <time>2017-08-24T09:03:02Z</time>
      </trkpt>
      <trkpt lat="44.18929" lon="0.79567">
        <ele>92.767</ele>
        <time>2017-08-24T09:03:10Z</time>
      </trkpt>
      <trkpt lat="44.18929" lon="0.79545">
        <ele>93.597</ele>
        <time>2017-08-24T09:03:18Z</time>
      </trkpt>
      <trkpt lat="44.18931" lon="0.79515">
        <ele>93.946</ele>
        <time>2017-08-24T09:03:28Z</time>
      </trkpt>
      <trkpt lat="44.18933" lon="0.79489">
        <ele>95.077</ele>
        <time>2017-08-24T09:03:37Z</time>
      </trkpt>
      <trkpt lat="44.18933" lon="0.79457">
        <ele>97.738</ele>
        <time>2017-08-24T09:03:48Z</time>
      </trkpt>
      <trkpt lat="44.18929" lon="0.79424">
        <ele>100.007</ele>
        <time>2017-08-24T09:03:59Z</time>
      </trkpt>
      <trkpt lat="44.18925" lon="0.79396">
        <ele>101.187</ele>
        <time>2017-08-24T09:04:08Z</time>
      </trkpt>
      <trkpt lat="44.1892" lon="0.79366">
        <ele>102.608</ele>
        <time>2017-08-24T09:04:18Z</time>
      </trkpt>
      <trkpt lat="44.18916" lon="0.79337">
        <ele>103.537</ele>
        <time>2017-08-24T09:04:28Z</time>
      </trkpt>
      <trkpt lat="44.1891" lon="0.79302">
        <ele>101.965</ele>
        <time>2017-08-24T09:04:40Z</time>
      </trkpt>
      <trkpt lat="44.18904" lon="0.79271">
        <ele>99.614</ele>
        <time>2017-08-24T09:04:49Z</time>
      </trkpt>
      <trkpt lat="44.18895" lon="0.79226">
        <ele>99.155</ele>
        <time>2017-08-24T09:04:59Z</time>
      </trkpt>
      <trkpt lat="44.18883" lon="0.79187">
        <ele>100.766</ele>
        <time>2017-08-24T09:05:08Z</time>
      </trkpt>
      <trkpt lat="44.18873" lon="0.79165">
        <ele>101.195</ele>
        <time>2017-08-24T09:05:13Z</time>
      </trkpt>
      <trkpt lat="44.18858" lon="0.79134">
        <ele>101.304</ele>
        <time>2017-08-24T09:05:20Z</time>
      </trkpt>
      <trkpt lat="44.18839" lon="0.79092">
        <ele>101.605</ele>
        <time>2017-08-24T09:05:29Z</time>
      </trkpt>
      <trkpt lat="44.18819" lon="0.79061">
        <ele>102.456</ele>
        <time>2017-08-24T09:05:37Z</time>
      </trkpt>
      <trkpt lat="44.188" lon="0.79051">
        <ele>103.036</ele>
        <time>2017-08-24T09:05:43Z</time>
      </trkpt>
      <trkpt lat="44.18773" lon="0.79052">
        <ele>103.986</ele>
        <time>2017-08-24T09:05:52Z</time>
      </trkpt>
      <trkpt lat="44.1875" lon="0.79053">
        <ele>104.396</ele>
        <time>2017-08-24T09:06:00Z</time>
      </trkpt>
      <trkpt lat="44.18729" lon="0.79048">
        <ele>104.905</ele>
        <time>2017-08-24T09:06:08Z</time>
      </trkpt>
      <trkpt lat="44.18727" lon="0.79049">
        <ele>105.065</ele>
        <time>2017-08-24T09:06:09Z</time>
      </trkpt>
      <trkpt lat="44.18706" lon="0.79074">
        <ele>106.856</ele>
        <time>2017-08-24T09:06:20Z</time>
      </trkpt>
      <trkpt lat="44.18687" lon="0.7909">
        <ele>109.166</ele>
        <time>2017-08-24T09:06:31Z</time>
      </trkpt>
      <trkpt lat="44.18673" lon="0.79098">
        <ele>110.255</ele>
        <time>2017-08-24T09:06:39Z</time>
      </trkpt>
      <trkpt lat="44.18651" lon="0.79111">
        <ele>111.501</ele>
        <time>2017-08-24T09:06:52Z</time>
      </trkpt>
      <trkpt lat="44.18636" lon="0.79121">
        <ele>114.155</ele>
        <time>2017-08-24T09:07:01Z</time>
      </trkpt>
      <trkpt lat="44.18621" lon="0.79135">
        <ele>116.335</ele>
        <time>2017-08-24T09:07:11Z</time>
      </trkpt>
      <trkpt lat="44.18611" lon="0.79145">
        <ele>119.076</ele>
        <time>2017-08-24T09:07:18Z</time>
      </trkpt>
      <trkpt lat="44.18602" lon="0.79155">
        <ele>119.735</ele>
        <time>2017-08-24T09:07:25Z</time>
      </trkpt>
      <trkpt lat="44.18592" lon="0.79171">
        <ele>120.735</ele>
        <time>2017-08-24T09:07:33Z</time>
      </trkpt>
      <trkpt lat="44.18583" lon="0.79191">
        <ele>121.435</ele>
        <time>2017-08-24T09:07:42Z</time>
      </trkpt>
      <trkpt lat="44.18578" lon="0.79214">
        <ele>121.885</ele>
        <time>2017-08-24T09:07:51Z</time>
      </trkpt>
      <trkpt lat="44.18575" lon="0.79235">
        <ele>122.465</ele>
        <time>2017-08-24T09:07:59Z</time>
      </trkpt>
      <trkpt lat="44.18573" lon="0.79258">
        <ele>122.915</ele>
        <time>2017-08-24T09:08:09Z</time>
      </trkpt>
      <trkpt lat="44.1857" lon="0.79289">
        <ele>123.775</ele>
        <time>2017-08-24T09:08:22Z</time>
      </trkpt>
      <trkpt lat="44.18567" lon="0.79318">
        <ele>124.805</ele>
        <time>2017-08-24T09:08:34Z</time>
      </trkpt>
      <trkpt lat="44.18565" lon="0.79339">
        <ele>126.086</ele>
        <time>2017-08-24T09:08:43Z</time>
      </trkpt>
      <trkpt lat="44.18569" lon="0.79354">
        <ele>127.516</ele>
        <time>2017-08-24T09:08:50Z</time>
      </trkpt>
      <trkpt lat="44.18579" lon="0.79356">
        <ele>129.025</ele>
        <time>2017-08-24T09:08:56Z</time>
      </trkpt>
      <trkpt lat="44.18588" lon="0.79347">
        <ele>129.845</ele>
        <time>2017-08-24T09:09:02Z</time>
      </trkpt>
      <trkpt lat="44.18589" lon="0.79336">
        <ele>130.755</ele>
        <time>2017-08-24T09:09:08Z</time>
      </trkpt>
      <trkpt lat="44.18584" lon="0.79336">
        <ele>130.134</ele>
        <time>2017-08-24T09:09:12Z</time>
      </trkpt>
      <trkpt lat="44.1858" lon="0.79341">
        <ele>129.634</ele>
        <time>2017-08-24T09:09:18Z</time>
      </trkpt>
      <trkpt lat="44.18584" lon="0.79349">
        <ele>132.636</ele>
        <time>2017-08-24T09:09:24Z</time>
      </trkpt>
      <trkpt lat="44.18587" lon="0.79346">
        <ele>133.935</ele>
        <time>2017-08-24T09:09:27Z</time>
      </trkpt>
      <trkpt lat="44.18587" lon="0.7934">
        <ele>134.495</ele>
        <time>2017-08-24T09:09:33Z</time>
      </trkpt>
      <trkpt lat="44.1859" lon="0.79327">
        <ele>134.234</ele>
        <time>2017-08-24T09:09:40Z</time>
      </trkpt>
      <trkpt lat="44.18594" lon="0.79298">
        <ele>141.646</ele>
        <time>2017-08-24T09:09:51Z</time>
      </trkpt>
      <trkpt lat="44.18598" lon="0.79273">
        <ele>143.975</ele>
        <time>2017-08-24T09:10:01Z</time>
      </trkpt>
      <trkpt lat="44.18601" lon="0.79252">
        <ele>142.975</ele>
        <time>2017-08-24T09:10:10Z</time>
      </trkpt>
      <trkpt lat="44.18606" lon="0.7923">
        <ele>142.575</ele>
        <time>2017-08-24T09:10:20Z</time>
      </trkpt>
      <trkpt lat="44.18614" lon="0.79208">
        <ele>142.745</ele>
        <time>2017-08-24T09:10:30Z</time>
      </trkpt>
      <trkpt lat="44.18625" lon="0.79197">
        <ele>143.845</ele>
        <time>2017-08-24T09:10:38Z</time>
      </trkpt>
      <trkpt lat="44.18639" lon="0.79194">
        <ele>145.875</ele>
        <time>2017-08-24T09:10:47Z</time>
      </trkpt>
      <trkpt lat="44.18655" lon="0.79197">
        <ele>146.305</ele>
        <time>2017-08-24T09:10:57Z</time>
      </trkpt>
      <trkpt lat="44.18667" lon="0.79193">
        <ele>155.26</ele>
        <time>2017-08-24T09:11:06Z</time>
      </trkpt>
      <trkpt lat="44.18683" lon="0.79194">
        <ele>157.396</ele>
        <time>2017-08-24T09:11:16Z</time>
      </trkpt>
      <trkpt lat="44.18702" lon="0.79194">
        <ele>154.284</ele>
        <time>2017-08-24T09:11:27Z</time>
      </trkpt>
      <trkpt lat="44.18723" lon="0.79202">
        <ele>152.934</ele>
        <time>2017-08-24T09:11:39Z</time>
      </trkpt>
      <trkpt lat="44.18734" lon="0.79206">
        <ele>151.766</ele>
        <time>2017-08-24T09:11:47Z</time>
      </trkpt>
      <trkpt lat="44.1874" lon="0.7922">
        <ele>149.555</ele>
        <time>2017-08-24T09:11:54Z</time>
      </trkpt>
      <trkpt lat="44.18741" lon="0.79237">
        <ele>148.215</ele>
        <time>2017-08-24T09:12:02Z</time>
      </trkpt>
      <trkpt lat="44.1874" lon="0.7925">
        <ele>148.416</ele>
        <time>2017-08-24T09:12:09Z</time>
      </trkpt>
      <trkpt lat="44.18739" lon="0.79266">
        <ele>149.316</ele>
        <time>2017-08-24T09:12:17Z</time>
      </trkpt>
      <trkpt lat="44.18734" lon="0.79277">
        <ele>149.956</ele>
        <time>2017-08-24T09:12:24Z</time>
      </trkpt>
      <trkpt lat="44.18716" lon="0.79281">
        <ele>150.934</ele>
        <time>2017-08-24T09:12:34Z</time>
      </trkpt>
      <trkpt lat="44.18704" lon="0.79286">
        <ele>151.996</ele>
        <time>2017-08-24T09:12:42Z</time>
      </trkpt>
      <trkpt lat="44.18691" lon="0.79293">
        <ele>151.675</ele>
        <time>2017-08-24T09:12:50Z</time>
      </trkpt>
      <trkpt lat="44.1867" lon="0.79301">
        <ele>150.864</ele>
        <time>2017-08-24T09:12:58Z</time>
      </trkpt>
      <trkpt lat="44.18653" lon="0.79305">
        <ele>149.724</ele>
        <time>2017-08-24T09:13:04Z</time>
      </trkpt>
      <trkpt lat="44.18644" lon="0.79311">
        <ele>149.596</ele>
        <time>2017-08-24T09:13:09Z</time>
      </trkpt>
      <trkpt lat="44.18636" lon="0.79321">
        <ele>149.875</ele>
        <time>2017-08-24T09:13:15Z</time>
      </trkpt>
      <trkpt lat="44.18629" lon="0.79335">
        <ele>150.846</ele>
        <time>2017-08-24T09:13:21Z</time>
      </trkpt>
      <trkpt lat="44.1862" lon="0.79355">
        <ele>150.595</ele>
        <time>2017-08-24T09:13:30Z</time>
      </trkpt>
      <trkpt lat="44.18611" lon="0.7938">
        <ele>151.275</ele>
        <time>2017-08-24T09:13:41Z</time>
      </trkpt>
      <trkpt lat="44.18608" lon="0.79387">
        <ele>151.425</ele>
        <time>2017-08-24T09:13:46Z</time>
      </trkpt>
      <trkpt lat="44.18607" lon="0.7939">
        <ele>151.965</ele>
        <time>2017-08-24T09:14:57Z</time>
      </trkpt>
      <trkpt lat="44.18607" lon="0.79392">
        <ele>151.824</ele>
        <time>2017-08-24T09:15:00Z</time>
      </trkpt>
      <trkpt lat="44.18604" lon="0.79403">
        <ele>151.825</ele>
        <time>2017-08-24T09:15:07Z</time>
      </trkpt>
      <trkpt lat="44.18598" lon="0.79425">
        <ele>151.315</ele>
        <time>2017-08-24T09:15:14Z</time>
      </trkpt>
      <trkpt lat="44.18596" lon="0.79455">
        <ele>150.775</ele>
        <time>2017-08-24T09:15:22Z</time>
      </trkpt>
      <trkpt lat="44.18593" lon="0.79492">
        <ele>150.855</ele>
        <time>2017-08-24T09:15:33Z</time>
      </trkpt>
      <trkpt lat="44.18592" lon="0.7952">
        <ele>150.575</ele>
        <time>2017-08-24T09:15:42Z</time>
      </trkpt>
      <trkpt lat="44.18593" lon="0.79542">
        <ele>150.194</ele>
        <time>2017-08-24T09:15:49Z</time>
      </trkpt>
      <trkpt lat="44.18595" lon="0.79563">
        <ele>148.444</ele>
        <time>2017-08-24T09:15:57Z</time>
      </trkpt>
      <trkpt lat="44.18597" lon="0.79588">
        <ele>147.585</ele>
        <time>2017-08-24T09:16:04Z</time>
      </trkpt>
      <trkpt lat="44.18601" lon="0.7962">
        <ele>146.775</ele>
        <time>2017-08-24T09:16:13Z</time>
      </trkpt>
      <trkpt lat="44.18601" lon="0.79625">
        <ele>146.635</ele>
        <time>2017-08-24T09:16:15Z</time>
      </trkpt>
      <trkpt lat="44.18593" lon="0.79629">
        <ele>146.174</ele>
        <time>2017-08-24T09:16:20Z</time>
      </trkpt>
      <trkpt lat="44.1859" lon="0.79628">
        <ele>146.184</ele>
        <time>2017-08-24T09:16:21Z</time>
      </trkpt>
      <trkpt lat="44.18569" lon="0.7963">
        <ele>145.865</ele>
        <time>2017-08-24T09:16:29Z</time>
      </trkpt>
      <trkpt lat="44.18567" lon="0.7964">
        <ele>145.195</ele>
        <time>2017-08-24T09:16:34Z</time>
      </trkpt>
      <trkpt lat="44.18568" lon="0.79643">
        <ele>144.625</ele>
        <time>2017-08-24T09:16:38Z</time>
      </trkpt>
      <trkpt lat="44.18569" lon="0.79635">
        <ele>144.545</ele>
        <time>2017-08-24T09:16:43Z</time>
      </trkpt>
      <trkpt lat="44.18569" lon="0.79628">
        <ele>145.135</ele>
        <time>2017-08-24T09:16:49Z</time>
      </trkpt>
      <trkpt lat="44.18571" lon="0.79627">
        <ele>145.965</ele>
        <time>2017-08-24T09:16:55Z</time>
      </trkpt>
      <trkpt lat="44.18572" lon="0.79626">
        <ele>149.316</ele>
        <time>2017-08-24T09:17:25Z</time>
      </trkpt>
      <trkpt lat="44.18579" lon="0.79624">
        <ele>149.034</ele>
        <time>2017-08-24T09:17:32Z</time>
      </trkpt>
      <trkpt lat="44.18585" lon="0.79625">
        <ele>149.876</ele>
        <time>2017-08-24T09:17:38Z</time>
      </trkpt>
      <trkpt lat="44.18597" lon="0.79623">
        <ele>151.976</ele>
        <time>2017-08-24T09:17:47Z</time>
      </trkpt>
      <trkpt lat="44.18602" lon="0.7963">
        <ele>151.426</ele>
        <time>2017-08-24T09:17:51Z</time>
      </trkpt>
      <trkpt lat="44.18606" lon="0.79643">
        <ele>151.016</ele>
        <time>2017-08-24T09:17:58Z</time>
      </trkpt>
      <trkpt lat="44.18607" lon="0.79656">
        <ele>150.755</ele>
        <time>2017-08-24T09:18:05Z</time>
      </trkpt>
      <trkpt lat="44.18611" lon="0.79674">
        <ele>150.205</ele>
        <time>2017-08-24T09:18:15Z</time>
      </trkpt>
      <trkpt lat="44.18615" lon="0.79694">
        <ele>150.015</ele>
        <time>2017-08-24T09:18:25Z</time>
      </trkpt>
      <trkpt lat="44.18619" lon="0.79713">
        <ele>151.165</ele>
        <time>2017-08-24T09:18:33Z</time>
      </trkpt>
      <trkpt lat="44.18625" lon="0.79735">
        <ele>154.147</ele>
        <time>2017-08-24T09:18:41Z</time>
      </trkpt>
      <trkpt lat="44.18628" lon="0.79757">
        <ele>153.125</ele>
        <time>2017-08-24T09:18:48Z</time>
      </trkpt>
      <trkpt lat="44.18632" lon="0.79793">
        <ele>150.344</ele>
        <time>2017-08-24T09:18:58Z</time>
      </trkpt>
      <trkpt lat="44.18634" lon="0.7981">
        <ele>150.066</ele>
        <time>2017-08-24T09:19:05Z</time>
      </trkpt>
      <trkpt lat="44.18636" lon="0.79834">
        <ele>149.857</ele>
        <time>2017-08-24T09:19:14Z</time>
      </trkpt>
      <trkpt lat="44.18637" lon="0.7986">
        <ele>149.126</ele>
        <time>2017-08-24T09:19:23Z</time>
      </trkpt>
      <trkpt lat="44.18639" lon="0.79883">
        <ele>149.707</ele>
        <time>2017-08-24T09:19:31Z</time>
      </trkpt>
      <trkpt lat="44.1864" lon="0.79904">
        <ele>149.256</ele>
        <time>2017-08-24T09:19:40Z</time>
      </trkpt>
      <trkpt lat="44.1864" lon="0.79925">
        <ele>148.956</ele>
        <time>2017-08-24T09:19:49Z</time>
      </trkpt>
      <trkpt lat="44.18642" lon="0.79944">
        <ele>148.235</ele>
        <time>2017-08-24T09:19:57Z</time>
      </trkpt>
      <trkpt lat="44.18647" lon="0.79968">
        <ele>148.866</ele>
        <time>2017-08-24T09:20:07Z</time>
      </trkpt>
      <trkpt lat="44.18651" lon="0.79975">
        <ele>149.707</ele>
        <time>2017-08-24T09:20:12Z</time>
      </trkpt>
      <trkpt lat="44.1865" lon="0.7998">
        <ele>149.976</ele>
        <time>2017-08-24T09:20:18Z</time>
      </trkpt>
      <trkpt lat="44.18649" lon="0.79981">
        <ele>149.096</ele>
        <time>2017-08-24T09:21:01Z</time>
      </trkpt>
      <trkpt lat="44.1865" lon="0.79983">
        <ele>148.796</ele>
        <time>2017-08-24T09:22:16Z</time>
      </trkpt>
      <trkpt lat="44.18652" lon="0.79987">
        <ele>148.766</ele>
        <time>2017-08-24T09:22:19Z</time>
      </trkpt>
      <trkpt lat="44.18656" lon="0.79993">
        <ele>149.186</ele>
        <time>2017-08-24T09:22:25Z</time>
      </trkpt>
      <trkpt lat="44.18657" lon="0.80007">
        <ele>149.706</ele>
        <time>2017-08-24T09:22:34Z</time>
      </trkpt>
      <trkpt lat="44.18659" lon="0.80019">
        <ele>150.596</ele>
        <time>2017-08-24T09:22:41Z</time>
      </trkpt>
      <trkpt lat="44.1866" lon="0.80022">
        <ele>150.906</ele>
        <time>2017-08-24T09:22:43Z</time>
      </trkpt>
      <trkpt lat="44.18661" lon="0.80028">
        <ele>151.346</ele>
        <time>2017-08-24T09:22:47Z</time>
      </trkpt>
      <trkpt lat="44.18667" lon="0.80044">
        <ele>152.677</ele>
        <time>2017-08-24T09:22:58Z</time>
      </trkpt>
      <trkpt lat="44.18674" lon="0.8005">
        <ele>154.698</ele>
        <time>2017-08-24T09:23:05Z</time>
      </trkpt>
      <trkpt lat="44.18681" lon="0.80048">
        <ele>157.897</ele>
        <time>2017-08-24T09:23:14Z</time>
      </trkpt>
      <trkpt lat="44.18683" lon="0.80049">
        <ele>154.526</ele>
        <time>2017-08-24T09:23:37Z</time>
      </trkpt>
      <trkpt lat="44.18688" lon="0.80047">
        <ele>153.657</ele>
        <time>2017-08-24T09:24:01Z</time>
      </trkpt>
      <trkpt lat="44.18695" lon="0.80043">
        <ele>153.726</ele>
        <time>2017-08-24T09:24:08Z</time>
      </trkpt>
      <trkpt lat="44.18705" lon="0.80043">
        <ele>154.006</ele>
        <time>2017-08-24T09:24:14Z</time>
      </trkpt>
      <trkpt lat="44.18709" lon="0.80041">
        <ele>154.187</ele>
        <time>2017-08-24T09:24:16Z</time>
      </trkpt>
      <trkpt lat="44.18712" lon="0.80029">
        <ele>154.807</ele>
        <time>2017-08-24T09:24:22Z</time>
      </trkpt>
      <trkpt lat="44.18712" lon="0.80026">
        <ele>154.877</ele>
        <time>2017-08-24T09:24:23Z</time>
      </trkpt>
      <trkpt lat="44.18722" lon="0.80003">
        <ele>155.647</ele>
        <time>2017-08-24T09:24:34Z</time>
      </trkpt>
      <trkpt lat="44.18724" lon="0.80001">
        <ele>155.716</ele>
        <time>2017-08-24T09:24:37Z</time>
      </trkpt>
      <trkpt lat="44.18725" lon="0.79992">
        <ele>155.926</ele>
        <time>2017-08-24T09:24:41Z</time>
      </trkpt>
      <trkpt lat="44.18722" lon="0.79966">
        <ele>155.685</ele>
        <time>2017-08-24T09:24:50Z</time>
      </trkpt>
      <trkpt lat="44.1872" lon="0.79947">
        <ele>154.954</ele>
        <time>2017-08-24T09:24:56Z</time>
      </trkpt>
      <trkpt lat="44.18717" lon="0.79918">
        <ele>155.575</ele>
        <time>2017-08-24T09:25:04Z</time>
      </trkpt>
      <trkpt lat="44.18715" lon="0.79901">
        <ele>155.575</ele>
        <time>2017-08-24T09:25:09Z</time>
      </trkpt>
      <trkpt lat="44.18714" lon="0.79883">
        <ele>154.403</ele>
        <time>2017-08-24T09:25:14Z</time>
      </trkpt>
      <trkpt lat="44.1871" lon="0.7984">
        <ele>153.643</ele>
        <time>2017-08-24T09:25:24Z</time>
      </trkpt>
      <trkpt lat="44.1871" lon="0.79807">
        <ele>153.904</ele>
        <time>2017-08-24T09:25:32Z</time>
      </trkpt>
      <trkpt lat="44.18709" lon="0.79778">
        <ele>153.834</ele>
        <time>2017-08-24T09:25:39Z</time>
      </trkpt>
      <trkpt lat="44.18708" lon="0.79766">
        <ele>154.585</ele>
        <time>2017-08-24T09:25:44Z</time>
      </trkpt>
      <trkpt lat="44.18706" lon="0.79759">
        <ele>154.205</ele>
        <time>2017-08-24T09:25:50Z</time>
      </trkpt>
      <trkpt lat="44.18708" lon="0.79757">
        <ele>157.908</ele>
        <time>2017-08-24T09:25:56Z</time>
      </trkpt>
      <trkpt lat="44.18708" lon="0.79758">
        <ele>158.638</ele>
        <time>2017-08-24T09:25:57Z</time>
      </trkpt>
      <trkpt lat="44.18706" lon="0.79768">
        <ele>160.95</ele>
        <time>2017-08-24T09:26:04Z</time>
      </trkpt>
      <trkpt lat="44.18707" lon="0.79773">
        <ele>159.546</ele>
        <time>2017-08-24T09:29:16Z</time>
      </trkpt>
      <trkpt lat="44.18707" lon="0.79768">
        <ele>160.126</ele>
        <time>2017-08-24T09:29:23Z</time>
      </trkpt>
      <trkpt lat="44.18711" lon="0.79767">
        <ele>160.226</ele>
        <time>2017-08-24T09:31:14Z</time>
      </trkpt>
      <trkpt lat="44.18712" lon="0.79763">
        <ele>160.086</ele>
        <time>2017-08-24T09:31:18Z</time>
      </trkpt>
      <trkpt lat="44.18711" lon="0.79758">
        <ele>160.056</ele>
        <time>2017-08-24T09:31:21Z</time>
      </trkpt>
      <trkpt lat="44.18712" lon="0.79745">
        <ele>160.706</ele>
        <time>2017-08-24T09:31:27Z</time>
      </trkpt>
      <trkpt lat="44.18711" lon="0.79724">
        <ele>160.514</ele>
        <time>2017-08-24T09:31:36Z</time>
      </trkpt>
      <trkpt lat="44.1871" lon="0.7971">
        <ele>161.765</ele>
        <time>2017-08-24T09:31:42Z</time>
      </trkpt>
      <trkpt lat="44.18706" lon="0.79682">
        <ele>159.444</ele>
        <time>2017-08-24T09:31:55Z</time>
      </trkpt>
      <trkpt lat="44.18708" lon="0.7967">
        <ele>159.245</ele>
        <time>2017-08-24T09:32:01Z</time>
      </trkpt>
      <trkpt lat="44.18711" lon="0.79657">
        <ele>162.826</ele>
        <time>2017-08-24T09:32:09Z</time>
      </trkpt>
      <trkpt lat="44.18713" lon="0.79648">
        <ele>163.746</ele>
        <time>2017-08-24T09:32:17Z</time>
      </trkpt>
      <trkpt lat="44.18712" lon="0.79644">
        <ele>163.815</ele>
        <time>2017-08-24T09:32:21Z</time>
      </trkpt>
      <trkpt lat="44.18712" lon="0.79636">
        <ele>162.315</ele>
        <time>2017-08-24T09:32:29Z</time>
      </trkpt>
      <trkpt lat="44.1871" lon="0.79627">
        <ele>160.734</ele>
        <time>2017-08-24T09:32:38Z</time>
      </trkpt>
      <trkpt lat="44.18709" lon="0.7962">
        <ele>161.296</ele>
        <time>2017-08-24T09:32:45Z</time>
      </trkpt>
      <trkpt lat="44.18708" lon="0.79611">
        <ele>161.235</ele>
        <time>2017-08-24T09:32:53Z</time>
      </trkpt>
      <trkpt lat="44.18705" lon="0.79609">
        <ele>160.936</ele>
        <time>2017-08-24T09:32:57Z</time>
      </trkpt>
      <trkpt lat="44.18702" lon="0.79605">
        <ele>160.766</ele>
        <time>2017-08-24T09:33:02Z</time>
      </trkpt>
      <trkpt lat="44.18703" lon="0.79603">
        <ele>160.746</ele>
        <time>2017-08-24T09:33:03Z</time>
      </trkpt>
      <trkpt lat="44.18704" lon="0.79594">
        <ele>160.785</ele>
        <time>2017-08-24T09:33:08Z</time>
      </trkpt>
      <trkpt lat="44.18701" lon="0.79591">
        <ele>160.686</ele>
        <time>2017-08-24T09:33:12Z</time>
      </trkpt>
      <trkpt lat="44.18699" lon="0.79586">
        <ele>160.375</ele>
        <time>2017-08-24T09:33:17Z</time>
      </trkpt>
      <trkpt lat="44.18699" lon="0.79578">
        <ele>160.325</ele>
        <time>2017-08-24T09:33:24Z</time>
      </trkpt>
      <trkpt lat="44.18699" lon="0.79565">
        <ele>161.326</ele>
        <time>2017-08-24T09:33:34Z</time>
      </trkpt>
      <trkpt lat="44.18698" lon="0.79556">
        <ele>161.345</ele>
        <time>2017-08-24T09:33:42Z</time>
      </trkpt>
      <trkpt lat="44.18698" lon="0.79555">
        <ele>161.155</ele>
        <time>2017-08-24T09:33:43Z</time>
      </trkpt>
      <trkpt lat="44.18701" lon="0.79549">
        <ele>160.426</ele>
        <time>2017-08-24T09:33:48Z</time>
      </trkpt>
      <trkpt lat="44.18703" lon="0.79544">
        <ele>160.186</ele>
        <time>2017-08-24T09:33:51Z</time>
      </trkpt>
      <trkpt lat="44.1871" lon="0.79543">
        <ele>158.735</ele>
        <time>2017-08-24T09:33:58Z</time>
      </trkpt>
      <trkpt lat="44.18711" lon="0.79542">
        <ele>158.574</ele>
        <time>2017-08-24T09:33:59Z</time>
      </trkpt>
      <trkpt lat="44.18713" lon="0.79542">
        <ele>158.625</ele>
        <time>2017-08-24T09:34:01Z</time>
      </trkpt>
      <trkpt lat="44.18725" lon="0.79545">
        <ele>161.176</ele>
        <time>2017-08-24T09:34:08Z</time>
      </trkpt>
      <trkpt lat="44.18737" lon="0.79547">
        <ele>160.765</ele>
        <time>2017-08-24T09:34:12Z</time>
      </trkpt>
      <trkpt lat="44.18742" lon="0.79547">
        <ele>159.295</ele>
        <time>2017-08-24T09:34:15Z</time>
      </trkpt>
      <trkpt lat="44.18744" lon="0.79545">
        <ele>159.005</ele>
        <time>2017-08-24T09:34:20Z</time>
      </trkpt>
      <trkpt lat="44.18745" lon="0.7953">
        <ele>158.265</ele>
        <time>2017-08-24T09:34:26Z</time>
      </trkpt>
      <trkpt lat="44.18748" lon="0.79504">
        <ele>159.026</ele>
        <time>2017-08-24T09:34:34Z</time>
      </trkpt>
      <trkpt lat="44.18747" lon="0.79483">
        <ele>158.935</ele>
        <time>2017-08-24T09:34:41Z</time>
      </trkpt>
      <trkpt lat="44.18749" lon="0.79457">
        <ele>157.675</ele>
        <time>2017-08-24T09:34:50Z</time>
      </trkpt>
      <trkpt lat="44.1875" lon="0.79435">
        <ele>156.965</ele>
        <time>2017-08-24T09:34:57Z</time>
      </trkpt>
      <trkpt lat="44.18751" lon="0.79409">
        <ele>156.024</ele>
        <time>2017-08-24T09:35:04Z</time>
      </trkpt>
      <trkpt lat="44.18754" lon="0.79387">
        <ele>154.784</ele>
        <time>2017-08-24T09:35:09Z</time>
      </trkpt>
      <trkpt lat="44.18756" lon="0.79359">
        <ele>153.664</ele>
        <time>2017-08-24T09:35:15Z</time>
      </trkpt>
      <trkpt lat="44.18758" lon="0.79335">
        <ele>151.663</ele>
        <time>2017-08-24T09:35:20Z</time>
      </trkpt>
      <trkpt lat="44.1876" lon="0.7931">
        <ele>150.133</ele>
        <time>2017-08-24T09:35:26Z</time>
      </trkpt>
      <trkpt lat="44.18763" lon="0.79286">
        <ele>148.053</ele>
        <time>2017-08-24T09:35:31Z</time>
      </trkpt>
      <trkpt lat="44.18765" lon="0.79274">
        <ele>147.114</ele>
        <time>2017-08-24T09:35:35Z</time>
      </trkpt>
      <trkpt lat="44.18766" lon="0.79268">
        <ele>146.794</ele>
        <time>2017-08-24T09:35:39Z</time>
      </trkpt>
      <trkpt lat="44.18768" lon="0.79255">
        <ele>145.963</ele>
        <time>2017-08-24T09:35:43Z</time>
      </trkpt>
      <trkpt lat="44.18768" lon="0.79233">
        <ele>145.233</ele>
        <time>2017-08-24T09:35:48Z</time>
      </trkpt>
      <trkpt lat="44.18767" lon="0.79216">
        <ele>143.792</ele>
        <time>2017-08-24T09:35:53Z</time>
      </trkpt>
      <trkpt lat="44.18763" lon="0.79194">
        <ele>138.971</ele>
        <time>2017-08-24T09:36:00Z</time>
      </trkpt>
      <trkpt lat="44.1876" lon="0.7918">
        <ele>135.201</ele>
        <time>2017-08-24T09:36:05Z</time>
      </trkpt>
      <trkpt lat="44.18759" lon="0.79178">
        <ele>134.538</ele>
        <time>2017-08-24T09:36:06Z</time>
      </trkpt>
      <trkpt lat="44.18747" lon="0.79178">
        <ele>132.302</ele>
        <time>2017-08-24T09:36:12Z</time>
      </trkpt>
      <trkpt lat="44.18728" lon="0.79183">
        <ele>130.482</ele>
        <time>2017-08-24T09:36:18Z</time>
      </trkpt>
      <trkpt lat="44.18717" lon="0.79185">
        <ele>133.285</ele>
        <time>2017-08-24T09:36:24Z</time>
      </trkpt>
      <trkpt lat="44.18711" lon="0.79172">
        <ele>155.107</ele>
        <time>2017-08-24T09:39:06Z</time>
      </trkpt>
      <trkpt lat="44.1871" lon="0.79166">
        <ele>153.275</ele>
        <time>2017-08-24T09:39:10Z</time>
      </trkpt>
      <trkpt lat="44.18708" lon="0.79165">
        <ele>152.604</ele>
        <time>2017-08-24T09:39:11Z</time>
      </trkpt>
      <trkpt lat="44.18695" lon="0.79162">
        <ele>143.952</ele>
        <time>2017-08-24T09:39:17Z</time>
      </trkpt>
      <trkpt lat="44.18673" lon="0.79151">
        <ele>138.34</ele>
        <time>2017-08-24T09:39:22Z</time>
      </trkpt>
      <trkpt lat="44.18656" lon="0.79147">
        <ele>130.377</ele>
        <time>2017-08-24T09:39:25Z</time>
      </trkpt>
      <trkpt lat="44.18639" lon="0.79145">
        <ele>127.248</ele>
        <time>2017-08-24T09:39:28Z</time>
      </trkpt>
      <trkpt lat="44.1863" lon="0.79145">
        <ele>123.91</ele>
        <time>2017-08-24T09:39:32Z</time>
      </trkpt>
      <trkpt lat="44.18621" lon="0.79146">
        <ele>121.801</ele>
        <time>2017-08-24T09:39:36Z</time>
      </trkpt>
      <trkpt lat="44.18624" lon="0.79133">
        <ele>120.082</ele>
        <time>2017-08-24T09:39:40Z</time>
      </trkpt>
      <trkpt lat="44.18631" lon="0.79127">
        <ele>118.892</ele>
        <time>2017-08-24T09:39:42Z</time>
      </trkpt>
      <trkpt lat="44.18666" lon="0.79106">
        <ele>114.2</ele>
        <time>2017-08-24T09:39:48Z</time>
      </trkpt>
      <trkpt lat="44.18687" lon="0.79096">
        <ele>112.361</ele>
        <time>2017-08-24T09:39:52Z</time>
      </trkpt>
      <trkpt lat="44.187" lon="0.79087">
        <ele>110.672</ele>
        <time>2017-08-24T09:39:56Z</time>
      </trkpt>
      <trkpt lat="44.18719" lon="0.79074">
        <ele>108.523</ele>
        <time>2017-08-24T09:40:01Z</time>
      </trkpt>
      <trkpt lat="44.18729" lon="0.79072">
        <ele>106.463</ele>
        <time>2017-08-24T09:40:06Z</time>
      </trkpt>
      <trkpt lat="44.18744" lon="0.79065">
        <ele>105.624</ele>
        <time>2017-08-24T09:40:12Z</time>
      </trkpt>
      <trkpt lat="44.18767" lon="0.7906">
        <ele>106.145</ele>
        <time>2017-08-24T09:40:18Z</time>
      </trkpt>
      <trkpt lat="44.18796" lon="0.79058">
        <ele>104.994</ele>
        <time>2017-08-24T09:40:24Z</time>
      </trkpt>
      <trkpt lat="44.18823" lon="0.79072">
        <ele>103.094</ele>
        <time>2017-08-24T09:40:29Z</time>
      </trkpt>
      <trkpt lat="44.18835" lon="0.7909">
        <ele>102.505</ele>
        <time>2017-08-24T09:40:32Z</time>
      </trkpt>
      <trkpt lat="44.18853" lon="0.79129">
        <ele>102.115</ele>
        <time>2017-08-24T09:40:39Z</time>
      </trkpt>
      <trkpt lat="44.18855" lon="0.79135">
        <ele>102.155</ele>
        <time>2017-08-24T09:40:43Z</time>
      </trkpt>
      <trkpt lat="44.18856" lon="0.79137">
        <ele>102.695</ele>
        <time>2017-08-24T09:40:46Z</time>
      </trkpt>
      <trkpt lat="44.18858" lon="0.79142">
        <ele>104.186</ele>
        <time>2017-08-24T09:40:52Z</time>
      </trkpt>
      <trkpt lat="44.18857" lon="0.7914">
        <ele>107.467</ele>
        <time>2017-08-24T09:41:06Z</time>
      </trkpt>
      <trkpt lat="44.18862" lon="0.79147">
        <ele>106.795</ele>
        <time>2017-08-24T09:41:13Z</time>
      </trkpt>
      <trkpt lat="44.1887" lon="0.79164">
        <ele>108.096</ele>
        <time>2017-08-24T09:41:20Z</time>
      </trkpt>
      <trkpt lat="44.18881" lon="0.79188">
        <ele>108.876</ele>
        <time>2017-08-24T09:41:25Z</time>
      </trkpt>
      <trkpt lat="44.18895" lon="0.79232">
        <ele>107.196</ele>
        <time>2017-08-24T09:41:32Z</time>
      </trkpt>
      <trkpt lat="44.18909" lon="0.79305">
        <ele>106.036</ele>
        <time>2017-08-24T09:41:44Z</time>
      </trkpt>
      <trkpt lat="44.18918" lon="0.79354">
        <ele>105.605</ele>
        <time>2017-08-24T09:41:53Z</time>
      </trkpt>
      <trkpt lat="44.18926" lon="0.7941">
        <ele>102.945</ele>
        <time>2017-08-24T09:42:02Z</time>
      </trkpt>
      <trkpt lat="44.18932" lon="0.7947">
        <ele>100.814</ele>
        <time>2017-08-24T09:42:10Z</time>
      </trkpt>
      <trkpt lat="44.18932" lon="0.79516">
        <ele>97.952</ele>
        <time>2017-08-24T09:42:15Z</time>
      </trkpt>
      <trkpt lat="44.18929" lon="0.7959">
        <ele>94.342</ele>
        <time>2017-08-24T09:42:22Z</time>
      </trkpt>
      <trkpt lat="44.18932" lon="0.79638">
        <ele>92.752</ele>
        <time>2017-08-24T09:42:26Z</time>
      </trkpt>
      <trkpt lat="44.18953" lon="0.79705">
        <ele>91.194</ele>
        <time>2017-08-24T09:42:32Z</time>
      </trkpt>
      <trkpt lat="44.18973" lon="0.79777">
        <ele>89.064</ele>
        <time>2017-08-24T09:42:38Z</time>
      </trkpt>
      <trkpt lat="44.1898" lon="0.79845">
        <ele>86.843</ele>
        <time>2017-08-24T09:42:43Z</time>
      </trkpt>
      <trkpt lat="44.18988" lon="0.79928">
        <ele>82.802</ele>
        <time>2017-08-24T09:42:49Z</time>
      </trkpt>
      <trkpt lat="44.19006" lon="0.80022">
        <ele>76.852</ele>
        <time>2017-08-24T09:42:56Z</time>
      </trkpt>
      <trkpt lat="44.19031" lon="0.80131">
        <ele>71.983</ele>
        <time>2017-08-24T09:43:04Z</time>
      </trkpt>
      <trkpt lat="44.19039" lon="0.80157">
        <ele>71.372</ele>
        <time>2017-08-24T09:43:06Z</time>
      </trkpt>
      <trkpt lat="44.19066" lon="0.80196">
        <ele>69.824</ele>
        <time>2017-08-24T09:43:10Z</time>
      </trkpt>
      <trkpt lat="44.19102" lon="0.80217">
        <ele>67.894</ele>
        <time>2017-08-24T09:43:14Z</time>
      </trkpt>
      <trkpt lat="44.19121" lon="0.80219">
        <ele>67.245</ele>
        <time>2017-08-24T09:43:16Z</time>
      </trkpt>
      <trkpt lat="44.19194" lon="0.80216">
        <ele>66.417</ele>
        <time>2017-08-24T09:43:24Z</time>
      </trkpt>
      <trkpt lat="44.19227" lon="0.80214">
        <ele>67.3</ele>
        <time>2017-08-24T09:43:29Z</time>
      </trkpt>
      <trkpt lat="44.19281" lon="0.80211">
        <ele>66.379</ele>
        <time>2017-08-24T09:43:38Z</time>
      </trkpt>
      <trkpt lat="44.1935" lon="0.80208">
        <ele>65.149</ele>
        <time>2017-08-24T09:43:50Z</time>
      </trkpt>
      <trkpt lat="44.19414" lon="0.80204">
        <ele>64.729</ele>
        <time>2017-08-24T09:44:02Z</time>
      </trkpt>
      <trkpt lat="44.19463" lon="0.80202">
        <ele>64.749</ele>
        <time>2017-08-24T09:44:12Z</time>
      </trkpt>
      <trkpt lat="44.19522" lon="0.802">
        <ele>65.259</ele>
        <time>2017-08-24T09:44:24Z</time>
      </trkpt>
      <trkpt lat="44.19572" lon="0.80199">
        <ele>65.331</ele>
        <time>2017-08-24T09:44:34Z</time>
      </trkpt>
      <trkpt lat="44.19608" lon="0.80198">
        <ele>65.631</ele>
        <time>2017-08-24T09:44:41Z</time>
      </trkpt>
      <trkpt lat="44.19618" lon="0.802">
        <ele>65.521</ele>
        <time>2017-08-24T09:44:43Z</time>
      </trkpt>
      <trkpt lat="44.19638" lon="0.80211">
        <ele>65.301</ele>
        <time>2017-08-24T09:44:48Z</time>
      </trkpt>
      <trkpt lat="44.19641" lon="0.80213">
        <ele>65.331</ele>
        <time>2017-08-24T09:44:49Z</time>
      </trkpt>
      <trkpt lat="44.19648" lon="0.80204">
        <ele>65.3</ele>
        <time>2017-08-24T09:44:53Z</time>
      </trkpt>
      <trkpt lat="44.19656" lon="0.80183">
        <ele>65.031</ele>
        <time>2017-08-24T09:44:58Z</time>
      </trkpt>
      <trkpt lat="44.19668" lon="0.80172">
        <ele>65.091</ele>
        <time>2017-08-24T09:45:02Z</time>
      </trkpt>
      <trkpt lat="44.19676" lon="0.80169">
        <ele>65.151</ele>
        <time>2017-08-24T09:45:04Z</time>
      </trkpt>
      <trkpt lat="44.19719" lon="0.80163">
        <ele>65.051</ele>
        <time>2017-08-24T09:45:15Z</time>
      </trkpt>
      <trkpt lat="44.19768" lon="0.80164">
        <ele>65.321</ele>
        <time>2017-08-24T09:45:27Z</time>
      </trkpt>
      <trkpt lat="44.19811" lon="0.8017">
        <ele>65.752</ele>
        <time>2017-08-24T09:45:38Z</time>
      </trkpt>
      <trkpt lat="44.19846" lon="0.80177">
        <ele>66.945</ele>
        <time>2017-08-24T09:45:48Z</time>
      </trkpt>
      <trkpt lat="44.19882" lon="0.80185">
        <ele>68.512</ele>
        <time>2017-08-24T09:45:59Z</time>
      </trkpt>
      <trkpt lat="44.19908" lon="0.80191">
        <ele>69.012</ele>
        <time>2017-08-24T09:46:07Z</time>
      </trkpt>
      <trkpt lat="44.19938" lon="0.802">
        <ele>70.293</ele>
        <time>2017-08-24T09:46:18Z</time>
      </trkpt>
      <trkpt lat="44.19967" lon="0.80214">
        <ele>71.724</ele>
        <time>2017-08-24T09:46:30Z</time>
      </trkpt>
      <trkpt lat="44.19991" lon="0.80231">
        <ele>72.393</ele>
        <time>2017-08-24T09:46:42Z</time>
      </trkpt>
      <trkpt lat="44.20016" lon="0.80248">
        <ele>72.432</ele>
        <time>2017-08-24T09:46:53Z</time>
      </trkpt>
      <trkpt lat="44.20041" lon="0.80261">
        <ele>71.256</ele>
        <time>2017-08-24T09:46:59Z</time>
      </trkpt>
      <trkpt lat="44.20098" lon="0.80286">
        <ele>71.123</ele>
        <time>2017-08-24T09:47:10Z</time>
      </trkpt>
      <trkpt lat="44.20148" lon="0.80301">
        <ele>71.943</ele>
        <time>2017-08-24T09:47:20Z</time>
      </trkpt>
      <trkpt lat="44.20177" lon="0.80309">
        <ele>72.874</ele>
        <time>2017-08-24T09:47:27Z</time>
      </trkpt>
      <trkpt lat="44.20201" lon="0.80317">
        <ele>73.865</ele>
        <time>2017-08-24T09:47:35Z</time>
      </trkpt>
      <trkpt lat="44.20224" lon="0.80324">
        <ele>74.674</ele>
        <time>2017-08-24T09:47:44Z</time>
      </trkpt>
      <trkpt lat="44.20249" lon="0.80332">
        <ele>75.636</ele>
        <time>2017-08-24T09:47:54Z</time>
      </trkpt>
      <trkpt lat="44.20277" lon="0.80342">
        <ele>76.394</ele>
        <time>2017-08-24T09:48:05Z</time>
      </trkpt>
      <trkpt lat="44.20302" lon="0.80354">
        <ele>77.014</ele>
        <time>2017-08-24T09:48:15Z</time>
      </trkpt>
      <trkpt lat="44.20318" lon="0.80367">
        <ele>77.264</ele>
        <time>2017-08-24T09:48:23Z</time>
      </trkpt>
      <trkpt lat="44.2034" lon="0.80391">
        <ele>77.985</ele>
        <time>2017-08-24T09:48:31Z</time>
      </trkpt>
      <trkpt lat="44.20369" lon="0.80423">
        <ele>80.385</ele>
        <time>2017-08-24T09:48:41Z</time>
      </trkpt>
      <trkpt lat="44.20399" lon="0.80445">
        <ele>79.664</ele>
        <time>2017-08-24T09:48:48Z</time>
      </trkpt>
      <trkpt lat="44.20444" lon="0.80469">
        <ele>76.863</ele>
        <time>2017-08-24T09:48:57Z</time>
      </trkpt>
      <trkpt lat="44.20492" lon="0.80493">
        <ele>75.334</ele>
        <time>2017-08-24T09:49:07Z</time>
      </trkpt>
      <trkpt lat="44.20535" lon="0.80514">
        <ele>74.694</ele>
        <time>2017-08-24T09:49:17Z</time>
      </trkpt>
      <trkpt lat="44.20586" lon="0.80541">
        <ele>73.174</ele>
        <time>2017-08-24T09:49:29Z</time>
      </trkpt>
      <trkpt lat="44.20625" lon="0.80564">
        <ele>72.546</ele>
        <time>2017-08-24T09:49:38Z</time>
      </trkpt>
      <trkpt lat="44.20629" lon="0.80568">
        <ele>72.527</ele>
        <time>2017-08-24T09:49:39Z</time>
      </trkpt>
      <trkpt lat="44.20645" lon="0.80602">
        <ele>72.877</ele>
        <time>2017-08-24T09:49:46Z</time>
      </trkpt>
      <trkpt lat="44.20659" lon="0.80638">
        <ele>73.737</ele>
        <time>2017-08-24T09:49:54Z</time>
      </trkpt>
      <trkpt lat="44.20677" lon="0.80672">
        <ele>73.836</ele>
        <time>2017-08-24T09:50:02Z</time>
      </trkpt>
      <trkpt lat="44.20708" lon="0.80721">
        <ele>73.686</ele>
        <time>2017-08-24T09:50:13Z</time>
      </trkpt>
      <trkpt lat="44.20746" lon="0.80761">
        <ele>73.826</ele>
        <time>2017-08-24T09:50:24Z</time>
      </trkpt>
      <trkpt lat="44.20794" lon="0.80807">
        <ele>73.988</ele>
        <time>2017-08-24T09:50:37Z</time>
      </trkpt>
      <trkpt lat="44.20839" lon="0.80843">
        <ele>74.578</ele>
        <time>2017-08-24T09:50:49Z</time>
      </trkpt>
      <trkpt lat="44.20878" lon="0.80888">
        <ele>74.998</ele>
        <time>2017-08-24T09:51:01Z</time>
      </trkpt>
      <trkpt lat="44.20914" lon="0.80931">
        <ele>75.427</ele>
        <time>2017-08-24T09:51:13Z</time>
      </trkpt>
      <trkpt lat="44.20952" lon="0.80975">
        <ele>75.698</ele>
        <time>2017-08-24T09:51:25Z</time>
      </trkpt>
      <trkpt lat="44.20972" lon="0.81014">
        <ele>75.869</ele>
        <time>2017-08-24T09:51:33Z</time>
      </trkpt>
      <trkpt lat="44.20994" lon="0.81071">
        <ele>76.359</ele>
        <time>2017-08-24T09:51:44Z</time>
      </trkpt>
      <trkpt lat="44.21008" lon="0.81108">
        <ele>76.619</ele>
        <time>2017-08-24T09:51:51Z</time>
      </trkpt>
      <trkpt lat="44.21027" lon="0.81154">
        <ele>76.919</ele>
        <time>2017-08-24T09:52:00Z</time>
      </trkpt>
      <trkpt lat="44.21057" lon="0.81208">
        <ele>76.869</ele>
        <time>2017-08-24T09:52:12Z</time>
      </trkpt>
      <trkpt lat="44.21073" lon="0.81249">
        <ele>77.349</ele>
        <time>2017-08-24T09:52:21Z</time>
      </trkpt>
      <trkpt lat="44.21081" lon="0.81288">
        <ele>77.619</ele>
        <time>2017-08-24T09:52:29Z</time>
      </trkpt>
      <trkpt lat="44.21085" lon="0.81333">
        <ele>76.839</ele>
        <time>2017-08-24T09:52:38Z</time>
      </trkpt>
      <trkpt lat="44.21091" lon="0.81375">
        <ele>76.96</ele>
        <time>2017-08-24T09:52:47Z</time>
      </trkpt>
      <trkpt lat="44.21103" lon="0.81429">
        <ele>77.13</ele>
        <time>2017-08-24T09:52:58Z</time>
      </trkpt>
      <trkpt lat="44.21112" lon="0.81487">
        <ele>77.52</ele>
        <time>2017-08-24T09:53:09Z</time>
      </trkpt>
      <trkpt lat="44.21122" lon="0.8155">
        <ele>78.07</ele>
        <time>2017-08-24T09:53:21Z</time>
      </trkpt>
      <trkpt lat="44.21141" lon="0.81603">
        <ele>78.16</ele>
        <time>2017-08-24T09:53:32Z</time>
      </trkpt>
      <trkpt lat="44.21162" lon="0.81645">
        <ele>79.352</ele>
        <time>2017-08-24T09:53:41Z</time>
      </trkpt>
      <trkpt lat="44.21172" lon="0.81657">
        <ele>80.382</ele>
        <time>2017-08-24T09:53:44Z</time>
      </trkpt>
      <trkpt lat="44.2119" lon="0.81683">
        <ele>80.371</ele>
        <time>2017-08-24T09:53:51Z</time>
      </trkpt>
      <trkpt lat="44.21213" lon="0.81715">
        <ele>80.421</ele>
        <time>2017-08-24T09:54:00Z</time>
      </trkpt>
      <trkpt lat="44.21231" lon="0.8174">
        <ele>80.481</ele>
        <time>2017-08-24T09:54:08Z</time>
      </trkpt>
      <trkpt lat="44.21252" lon="0.8177">
        <ele>80.401</ele>
        <time>2017-08-24T09:54:17Z</time>
      </trkpt>
      <trkpt lat="44.2129" lon="0.8182">
        <ele>80.371</ele>
        <time>2017-08-24T09:54:31Z</time>
      </trkpt>
      <trkpt lat="44.2132" lon="0.81857">
        <ele>80.292</ele>
        <time>2017-08-24T09:54:42Z</time>
      </trkpt>
      <trkpt lat="44.21352" lon="0.81899">
        <ele>80.112</ele>
        <time>2017-08-24T09:54:54Z</time>
      </trkpt>
      <trkpt lat="44.21386" lon="0.81948">
        <ele>80.592</ele>
        <time>2017-08-24T09:55:07Z</time>
      </trkpt>
      <trkpt lat="44.21411" lon="0.81992">
        <ele>81.412</ele>
        <time>2017-08-24T09:55:18Z</time>
      </trkpt>
      <trkpt lat="44.21426" lon="0.82033">
        <ele>81.742</ele>
        <time>2017-08-24T09:55:28Z</time>
      </trkpt>
      <trkpt lat="44.21439" lon="0.82069">
        <ele>82.344</ele>
        <time>2017-08-24T09:55:37Z</time>
      </trkpt>
      <trkpt lat="44.2146" lon="0.8211">
        <ele>82.783</ele>
        <time>2017-08-24T09:55:48Z</time>
      </trkpt>
      <trkpt lat="44.2148" lon="0.82132">
        <ele>82.372</ele>
        <time>2017-08-24T09:55:55Z</time>
      </trkpt>
      <trkpt lat="44.21509" lon="0.8216">
        <ele>81.582</ele>
        <time>2017-08-24T09:56:03Z</time>
      </trkpt>
      <trkpt lat="44.21524" lon="0.8219">
        <ele>81.583</ele>
        <time>2017-08-24T09:56:09Z</time>
      </trkpt>
      <trkpt lat="44.21537" lon="0.82233">
        <ele>81.953</ele>
        <time>2017-08-24T09:56:18Z</time>
      </trkpt>
      <trkpt lat="44.21544" lon="0.82257">
        <ele>82.223</ele>
        <time>2017-08-24T09:56:25Z</time>
      </trkpt>
      <trkpt lat="44.21556" lon="0.82297">
        <ele>82.624</ele>
        <time>2017-08-24T09:56:36Z</time>
      </trkpt>
      <trkpt lat="44.21564" lon="0.82322">
        <ele>82.534</ele>
        <time>2017-08-24T09:56:43Z</time>
      </trkpt>
      <trkpt lat="44.21581" lon="0.82375">
        <ele>82.234</ele>
        <time>2017-08-24T09:56:55Z</time>
      </trkpt>
      <trkpt lat="44.21596" lon="0.8242">
        <ele>82.174</ele>
        <time>2017-08-24T09:57:06Z</time>
      </trkpt>
      <trkpt lat="44.21607" lon="0.82452">
        <ele>82.294</ele>
        <time>2017-08-24T09:57:16Z</time>
      </trkpt>
      <trkpt lat="44.2162" lon="0.82492">
        <ele>82.514</ele>
        <time>2017-08-24T09:57:25Z</time>
      </trkpt>
      <trkpt lat="44.21634" lon="0.8253">
        <ele>82.444</ele>
        <time>2017-08-24T09:57:34Z</time>
      </trkpt>
      <trkpt lat="44.21649" lon="0.82569">
        <ele>82.905</ele>
        <time>2017-08-24T09:57:44Z</time>
      </trkpt>
      <trkpt lat="44.21667" lon="0.82605">
        <ele>84.546</ele>
        <time>2017-08-24T09:57:54Z</time>
      </trkpt>
      <trkpt lat="44.21679" lon="0.82627">
        <ele>85.535</ele>
        <time>2017-08-24T09:58:01Z</time>
      </trkpt>
      <trkpt lat="44.21699" lon="0.82662">
        <ele>86.475</ele>
        <time>2017-08-24T09:58:12Z</time>
      </trkpt>
      <trkpt lat="44.21725" lon="0.82704">
        <ele>87.277</ele>
        <time>2017-08-24T09:58:25Z</time>
      </trkpt>
      <trkpt lat="44.21751" lon="0.82738">
        <ele>88.076</ele>
        <time>2017-08-24T09:58:37Z</time>
      </trkpt>
      <trkpt lat="44.21777" lon="0.8277">
        <ele>88.956</ele>
        <time>2017-08-24T09:58:49Z</time>
      </trkpt>
      <trkpt lat="44.21795" lon="0.82792">
        <ele>89.456</ele>
        <time>2017-08-24T09:58:57Z</time>
      </trkpt>
      <trkpt lat="44.21814" lon="0.82818">
        <ele>90.096</ele>
        <time>2017-08-24T09:59:05Z</time>
      </trkpt>
      <trkpt lat="44.21833" lon="0.82847">
        <ele>90.276</ele>
        <time>2017-08-24T09:59:14Z</time>
      </trkpt>
      <trkpt lat="44.21852" lon="0.82877">
        <ele>89.115</ele>
        <time>2017-08-24T09:59:24Z</time>
      </trkpt>
      <trkpt lat="44.21868" lon="0.82908">
        <ele>88.736</ele>
        <time>2017-08-24T09:59:34Z</time>
      </trkpt>
      <trkpt lat="44.2188" lon="0.82931">
        <ele>89.687</ele>
        <time>2017-08-24T09:59:41Z</time>
      </trkpt>
      <trkpt lat="44.21891" lon="0.82957">
        <ele>89.247</ele>
        <time>2017-08-24T09:59:48Z</time>
      </trkpt>
      <trkpt lat="44.21899" lon="0.82983">
        <ele>89.367</ele>
        <time>2017-08-24T09:59:55Z</time>
      </trkpt>
      <trkpt lat="44.2191" lon="0.83009">
        <ele>90.978</ele>
        <time>2017-08-24T10:00:03Z</time>
      </trkpt>
      <trkpt lat="44.21916" lon="0.83019">
        <ele>91.797</ele>
        <time>2017-08-24T10:00:07Z</time>
      </trkpt>
      <trkpt lat="44.21925" lon="0.83031">
        <ele>92.498</ele>
        <time>2017-08-24T10:00:12Z</time>
      </trkpt>
      <trkpt lat="44.2194" lon="0.83051">
        <ele>92.057</ele>
        <time>2017-08-24T10:00:20Z</time>
      </trkpt>
      <trkpt lat="44.21952" lon="0.83067">
        <ele>91.285</ele>
        <time>2017-08-24T10:00:26Z</time>
      </trkpt>
      <trkpt lat="44.21968" lon="0.83095">
        <ele>89.976</ele>
        <time>2017-08-24T10:00:35Z</time>
      </trkpt>
      <trkpt lat="44.21983" lon="0.8313">
        <ele>88.836</ele>
        <time>2017-08-24T10:00:42Z</time>
      </trkpt>
      <trkpt lat="44.21991" lon="0.83167">
        <ele>87.957</ele>
        <time>2017-08-24T10:00:48Z</time>
      </trkpt>
      <trkpt lat="44.22006" lon="0.83191">
        <ele>87.947</ele>
        <time>2017-08-24T10:00:53Z</time>
      </trkpt>
      <trkpt lat="44.22026" lon="0.83205">
        <ele>88.498</ele>
        <time>2017-08-24T10:00:59Z</time>
      </trkpt>
      <trkpt lat="44.22041" lon="0.83227">
        <ele>88.908</ele>
        <time>2017-08-24T10:01:06Z</time>
      </trkpt>
      <trkpt lat="44.22045" lon="0.83241">
        <ele>88.437</ele>
        <time>2017-08-24T10:01:13Z</time>
      </trkpt>
      <trkpt lat="44.22048" lon="0.83251">
        <ele>88.037</ele>
        <time>2017-08-24T10:01:20Z</time>
      </trkpt>
      <trkpt lat="44.22051" lon="0.83265">
        <ele>87.957</ele>
        <time>2017-08-24T10:01:29Z</time>
      </trkpt>
      <trkpt lat="44.22055" lon="0.83281">
        <ele>88.228</ele>
        <time>2017-08-24T10:01:38Z</time>
      </trkpt>
      <trkpt lat="44.22057" lon="0.83296">
        <ele>88.438</ele>
        <time>2017-08-24T10:01:46Z</time>
      </trkpt>
      <trkpt lat="44.22058" lon="0.83316">
        <ele>87.917</ele>
        <time>2017-08-24T10:01:56Z</time>
      </trkpt>
      <trkpt lat="44.22058" lon="0.83335">
        <ele>87.778</ele>
        <time>2017-08-24T10:02:05Z</time>
      </trkpt>
      <trkpt lat="44.22058" lon="0.83369">
        <ele>88.408</ele>
        <time>2017-08-24T10:02:14Z</time>
      </trkpt>
      <trkpt lat="44.22058" lon="0.83401">
        <ele>88.008</ele>
        <time>2017-08-24T10:02:21Z</time>
      </trkpt>
      <trkpt lat="44.22065" lon="0.83429">
        <ele>88.668</ele>
        <time>2017-08-24T10:02:27Z</time>
      </trkpt>
      <trkpt lat="44.22067" lon="0.83433">
        <ele>88.718</ele>
        <time>2017-08-24T10:02:28Z</time>
      </trkpt>
      <trkpt lat="44.22091" lon="0.83469">
        <ele>88.838</ele>
        <time>2017-08-24T10:02:37Z</time>
      </trkpt>
      <trkpt lat="44.22122" lon="0.83502">
        <ele>89.479</ele>
        <time>2017-08-24T10:02:47Z</time>
      </trkpt>
      <trkpt lat="44.22162" lon="0.83539">
        <ele>89.848</ele>
        <time>2017-08-24T10:02:59Z</time>
      </trkpt>
      <trkpt lat="44.22187" lon="0.83571">
        <ele>89.959</ele>
        <time>2017-08-24T10:03:07Z</time>
      </trkpt>
      <trkpt lat="44.22211" lon="0.83613">
        <ele>90.529</ele>
        <time>2017-08-24T10:03:17Z</time>
      </trkpt>
      <trkpt lat="44.22238" lon="0.83652">
        <ele>91.299</ele>
        <time>2017-08-24T10:03:27Z</time>
      </trkpt>
      <trkpt lat="44.22262" lon="0.83678">
        <ele>91.758</ele>
        <time>2017-08-24T10:03:35Z</time>
      </trkpt>
      <trkpt lat="44.22292" lon="0.83696">
        <ele>91.69</ele>
        <time>2017-08-24T10:03:43Z</time>
      </trkpt>
      <trkpt lat="44.22317" lon="0.83712">
        <ele>91.78</ele>
        <time>2017-08-24T10:03:50Z</time>
      </trkpt>
      <trkpt lat="44.22343" lon="0.83731">
        <ele>91.79</ele>
        <time>2017-08-24T10:03:58Z</time>
      </trkpt>
      <trkpt lat="44.22357" lon="0.83741">
        <ele>91.75</ele>
        <time>2017-08-24T10:04:06Z</time>
      </trkpt>
      <trkpt lat="44.22369" lon="0.83748">
        <ele>91.65</ele>
        <time>2017-08-24T10:04:12Z</time>
      </trkpt>
      <trkpt lat="44.22393" lon="0.83768">
        <ele>91.72</ele>
        <time>2017-08-24T10:04:23Z</time>
      </trkpt>
      <trkpt lat="44.22411" lon="0.83787">
        <ele>92.891</ele>
        <time>2017-08-24T10:04:32Z</time>
      </trkpt>
      <trkpt lat="44.22428" lon="0.83808">
        <ele>93.731</ele>
        <time>2017-08-24T10:04:40Z</time>
      </trkpt>
      <trkpt lat="44.22443" lon="0.8383">
        <ele>94.201</ele>
        <time>2017-08-24T10:04:47Z</time>
      </trkpt>
      <trkpt lat="44.22459" lon="0.83854">
        <ele>95.361</ele>
        <time>2017-08-24T10:04:55Z</time>
      </trkpt>
      <trkpt lat="44.22474" lon="0.83876">
        <ele>95.34</ele>
        <time>2017-08-24T10:05:02Z</time>
      </trkpt>
      <trkpt lat="44.22495" lon="0.8391">
        <ele>94.871</ele>
        <time>2017-08-24T10:05:11Z</time>
      </trkpt>
      <trkpt lat="44.22507" lon="0.83931">
        <ele>95.001</ele>
        <time>2017-08-24T10:05:18Z</time>
      </trkpt>
      <trkpt lat="44.2251" lon="0.83935">
        <ele>95.051</ele>
        <time>2017-08-24T10:05:24Z</time>
      </trkpt>
      <trkpt lat="44.22512" lon="0.83937">
        <ele>95.591</ele>
        <time>2017-08-24T10:05:48Z</time>
      </trkpt>
      <trkpt lat="44.2251" lon="0.83947">
        <ele>95.782</ele>
        <time>2017-08-24T10:05:52Z</time>
      </trkpt>
      <trkpt lat="44.22492" lon="0.83962">
        <ele>97.432</ele>
        <time>2017-08-24T10:06:02Z</time>
      </trkpt>
      <trkpt lat="44.22485" lon="0.83966">
        <ele>98.013</ele>
        <time>2017-08-24T10:06:06Z</time>
      </trkpt>
      <trkpt lat="44.2247" lon="0.83975">
        <ele>99.242</ele>
        <time>2017-08-24T10:06:15Z</time>
      </trkpt>
      <trkpt lat="44.22456" lon="0.83984">
        <ele>100.442</ele>
        <time>2017-08-24T10:06:24Z</time>
      </trkpt>
      <trkpt lat="44.2244" lon="0.83993">
        <ele>101.712</ele>
        <time>2017-08-24T10:06:34Z</time>
      </trkpt>
      <trkpt lat="44.22424" lon="0.84003">
        <ele>102.842</ele>
        <time>2017-08-24T10:06:44Z</time>
      </trkpt>
      <trkpt lat="44.22401" lon="0.84016">
        <ele>104.132</ele>
        <time>2017-08-24T10:06:57Z</time>
      </trkpt>
      <trkpt lat="44.22379" lon="0.84029">
        <ele>105.402</ele>
        <time>2017-08-24T10:07:10Z</time>
      </trkpt>
      <trkpt lat="44.22361" lon="0.84039">
        <ele>107.212</ele>
        <time>2017-08-24T10:07:21Z</time>
      </trkpt>
      <trkpt lat="44.22345" lon="0.84048">
        <ele>109.052</ele>
        <time>2017-08-24T10:07:31Z</time>
      </trkpt>
      <trkpt lat="44.22329" lon="0.84057">
        <ele>111.072</ele>
        <time>2017-08-24T10:07:42Z</time>
      </trkpt>
      <trkpt lat="44.22308" lon="0.84067">
        <ele>112.822</ele>
        <time>2017-08-24T10:07:55Z</time>
      </trkpt>
      <trkpt lat="44.22291" lon="0.84073">
        <ele>114.823</ele>
        <time>2017-08-24T10:08:06Z</time>
      </trkpt>
      <trkpt lat="44.22275" lon="0.84077">
        <ele>116.372</ele>
        <time>2017-08-24T10:08:16Z</time>
      </trkpt>
      <trkpt lat="44.22256" lon="0.84081">
        <ele>117.511</ele>
        <time>2017-08-24T10:08:28Z</time>
      </trkpt>
      <trkpt lat="44.22236" lon="0.84086">
        <ele>118.982</ele>
        <time>2017-08-24T10:08:40Z</time>
      </trkpt>
      <trkpt lat="44.22222" lon="0.84089">
        <ele>120.451</ele>
        <time>2017-08-24T10:08:48Z</time>
      </trkpt>
      <trkpt lat="44.22203" lon="0.84095">
        <ele>123.342</ele>
        <time>2017-08-24T10:09:01Z</time>
      </trkpt>
      <trkpt lat="44.22192" lon="0.841">
        <ele>125.212</ele>
        <time>2017-08-24T10:09:09Z</time>
      </trkpt>
      <trkpt lat="44.22178" lon="0.84106">
        <ele>128.022</ele>
        <time>2017-08-24T10:09:20Z</time>
      </trkpt>
      <trkpt lat="44.22166" lon="0.84112">
        <ele>130.032</ele>
        <time>2017-08-24T10:09:29Z</time>
      </trkpt>
      <trkpt lat="44.22151" lon="0.84118">
        <ele>132.211</ele>
        <time>2017-08-24T10:09:40Z</time>
      </trkpt>
      <trkpt lat="44.22142" lon="0.84123">
        <ele>133.561</ele>
        <time>2017-08-24T10:09:48Z</time>
      </trkpt>
      <trkpt lat="44.22133" lon="0.84132">
        <ele>135.051</ele>
        <time>2017-08-24T10:09:57Z</time>
      </trkpt>
      <trkpt lat="44.22126" lon="0.84142">
        <ele>136.281</ele>
        <time>2017-08-24T10:10:06Z</time>
      </trkpt>
      <trkpt lat="44.22119" lon="0.84156">
        <ele>138.351</ele>
        <time>2017-08-24T10:10:16Z</time>
      </trkpt>
      <trkpt lat="44.22112" lon="0.84171">
        <ele>140.131</ele>
        <time>2017-08-24T10:10:27Z</time>
      </trkpt>
      <trkpt lat="44.22104" lon="0.84189">
        <ele>142.28</ele>
        <time>2017-08-24T10:10:39Z</time>
      </trkpt>
      <trkpt lat="44.221" lon="0.842">
        <ele>143.491</ele>
        <time>2017-08-24T10:10:47Z</time>
      </trkpt>
      <trkpt lat="44.22094" lon="0.84213">
        <ele>145.23</ele>
        <time>2017-08-24T10:10:56Z</time>
      </trkpt>
      <trkpt lat="44.22088" lon="0.84226">
        <ele>146.811</ele>
        <time>2017-08-24T10:11:05Z</time>
      </trkpt>
      <trkpt lat="44.22082" lon="0.84238">
        <ele>148.971</ele>
        <time>2017-08-24T10:11:13Z</time>
      </trkpt>
      <trkpt lat="44.22077" lon="0.84252">
        <ele>151.911</ele>
        <time>2017-08-24T10:11:22Z</time>
      </trkpt>
      <trkpt lat="44.2207" lon="0.84264">
        <ele>152.571</ele>
        <time>2017-08-24T10:11:30Z</time>
      </trkpt>
      <trkpt lat="44.22063" lon="0.84278">
        <ele>153.521</ele>
        <time>2017-08-24T10:11:39Z</time>
      </trkpt>
      <trkpt lat="44.22055" lon="0.84294">
        <ele>155.091</ele>
        <time>2017-08-24T10:11:49Z</time>
      </trkpt>
      <trkpt lat="44.22048" lon="0.84314">
        <ele>157.292</ele>
        <time>2017-08-24T10:12:01Z</time>
      </trkpt>
      <trkpt lat="44.22043" lon="0.8433">
        <ele>158.392</ele>
        <time>2017-08-24T10:12:11Z</time>
      </trkpt>
      <trkpt lat="44.22037" lon="0.84346">
        <ele>158.791</ele>
        <time>2017-08-24T10:12:22Z</time>
      </trkpt>
      <trkpt lat="44.22031" lon="0.84357">
        <ele>159.141</ele>
        <time>2017-08-24T10:12:29Z</time>
      </trkpt>
      <trkpt lat="44.22025" lon="0.84367">
        <ele>159.511</ele>
        <time>2017-08-24T10:12:36Z</time>
      </trkpt>
      <trkpt lat="44.22016" lon="0.84381">
        <ele>161.301</ele>
        <time>2017-08-24T10:12:46Z</time>
      </trkpt>
      <trkpt lat="44.22007" lon="0.84402">
        <ele>161.86</ele>
        <time>2017-08-24T10:12:56Z</time>
      </trkpt>
      <trkpt lat="44.22002" lon="0.84424">
        <ele>162.43</ele>
        <time>2017-08-24T10:13:02Z</time>
      </trkpt>
      <trkpt lat="44.21995" lon="0.84458">
        <ele>162.39</ele>
        <time>2017-08-24T10:13:09Z</time>
      </trkpt>
      <trkpt lat="44.21985" lon="0.84501">
        <ele>161.45</ele>
        <time>2017-08-24T10:13:17Z</time>
      </trkpt>
      <trkpt lat="44.21983" lon="0.84545">
        <ele>160.65</ele>
        <time>2017-08-24T10:13:25Z</time>
      </trkpt>
      <trkpt lat="44.21983" lon="0.8455">
        <ele>160.36</ele>
        <time>2017-08-24T10:13:26Z</time>
      </trkpt>
      <trkpt lat="44.21994" lon="0.8456">
        <ele>159.499</ele>
        <time>2017-08-24T10:13:30Z</time>
      </trkpt>
      <trkpt lat="44.21997" lon="0.84561">
        <ele>159.309</ele>
        <time>2017-08-24T10:13:31Z</time>
      </trkpt>
      <trkpt lat="44.21998" lon="0.84559">
        <ele>159.34</ele>
        <time>2017-08-24T10:13:37Z</time>
      </trkpt>
      <trkpt lat="44.21998" lon="0.84559">
        <ele>159.33</ele>
        <time>2017-08-24T10:13:40Z</time>
      </trkpt>
      <trkpt lat="44.22003" lon="0.84553">
        <ele>158.069</ele>
        <time>2017-08-24T10:13:45Z</time>
      </trkpt>
      <trkpt lat="44.22001" lon="0.84547">
        <ele>157.519</ele>
        <time>2017-08-24T10:13:49Z</time>
      </trkpt>
      <trkpt lat="44.22002" lon="0.84549">
        <ele>157.77</ele>
        <time>2017-08-24T10:13:55Z</time>
      </trkpt>
      <trkpt lat="44.22002" lon="0.8455">
        <ele>158.117</ele>
        <time>2017-08-24T10:13:59Z</time>
      </trkpt>
    </trkseg>
  </trk>
</gpx>